<?xml version="1.0" encoding="UTF-8" standalone="no" ?>
<gpx xmlns="http://www.topografix.com/GPX/1/1" creator="CompeGPS" version="1.1" xmlns:xsi="http://www.w3.org/2001/XMLSchema-instance" xsi:schemaLocation="http://www.topografix.com/GPX/1/1 http://www.topografix.com/GPX/1/1/gpx.xsd http://www.garmin.com/xmlschemas/GpxExtensions/v3 http://www.garmin.com/xmlschemas/GpxExtensionsv3.xsd http://www.garmin.com/xmlschemas/TrackPointExtension/v1 http://www.garmin.com/xmlschemas/TrackPointExtensionv1.xsd" xmlns:gpxtpx="http://www.garmin.com/xmlschemas/TrackPointExtension/v1">
  <metadata>
    <link href="http://www.compegps.com">
      <text>CompeGPS TEAM, SL</text>
    </link>
    <time>2018-10-13T19:52:32Z</time>
    <bounds maxlat="42.842948" maxlon="1.771171" minlat="42.819091" minlon="1.745457"/>
  </metadata>
  <trk>
    <name>saint-barthelemy</name>
    <userMyTwoNav></userMyTwoNav>
    <serialNumber></serialNumber>
    <trkseg>
      <trkpt lat="42.842850" lon="1.747044">
        <ele>1486.0</ele>
        <time>2018-10-13T07:06:48Z</time>
      </trkpt>
      <trkpt lat="42.842775" lon="1.746978">
        <ele>1486.1</ele>
        <time>2018-10-13T07:06:57Z</time>
      </trkpt>
      <trkpt lat="42.842656" lon="1.746971">
        <ele>1486.0</ele>
        <time>2018-10-13T07:07:05Z</time>
      </trkpt>
      <trkpt lat="42.842572" lon="1.746972">
        <ele>1486.0</ele>
        <time>2018-10-13T07:07:14Z</time>
      </trkpt>
      <trkpt lat="42.842473" lon="1.747008">
        <ele>1486.5</ele>
        <time>2018-10-13T07:07:24Z</time>
      </trkpt>
      <trkpt lat="42.842382" lon="1.747044">
        <ele>1486.9</ele>
        <time>2018-10-13T07:07:33Z</time>
      </trkpt>
      <trkpt lat="42.842298" lon="1.747063">
        <ele>1488.1</ele>
        <time>2018-10-13T07:07:44Z</time>
      </trkpt>
      <trkpt lat="42.842216" lon="1.747028">
        <ele>1490.5</ele>
        <time>2018-10-13T07:08:00Z</time>
      </trkpt>
      <trkpt lat="42.842154" lon="1.746984">
        <ele>1493.1</ele>
        <time>2018-10-13T07:08:21Z</time>
      </trkpt>
      <trkpt lat="42.842120" lon="1.746854">
        <ele>1496.4</ele>
        <time>2018-10-13T07:08:36Z</time>
      </trkpt>
      <trkpt lat="42.842008" lon="1.746849">
        <ele>1502.1</ele>
        <time>2018-10-13T07:09:10Z</time>
      </trkpt>
      <trkpt lat="42.841918" lon="1.746895">
        <ele>1505.4</ele>
        <time>2018-10-13T07:09:25Z</time>
      </trkpt>
      <trkpt lat="42.841840" lon="1.746973">
        <ele>1509.2</ele>
        <time>2018-10-13T07:09:44Z</time>
      </trkpt>
      <trkpt lat="42.841749" lon="1.746997">
        <ele>1510.9</ele>
        <time>2018-10-13T07:10:02Z</time>
      </trkpt>
      <trkpt lat="42.841641" lon="1.746970">
        <ele>1512.3</ele>
        <time>2018-10-13T07:10:13Z</time>
      </trkpt>
      <trkpt lat="42.841554" lon="1.746914">
        <ele>1512.8</ele>
        <time>2018-10-13T07:10:23Z</time>
      </trkpt>
      <trkpt lat="42.841461" lon="1.746850">
        <ele>1513.6</ele>
        <time>2018-10-13T07:10:32Z</time>
      </trkpt>
      <trkpt lat="42.841379" lon="1.746796">
        <ele>1515.2</ele>
        <time>2018-10-13T07:10:42Z</time>
      </trkpt>
      <trkpt lat="42.841281" lon="1.746790">
        <ele>1516.8</ele>
        <time>2018-10-13T07:10:53Z</time>
      </trkpt>
      <trkpt lat="42.841186" lon="1.746773">
        <ele>1519.4</ele>
        <time>2018-10-13T07:11:05Z</time>
      </trkpt>
      <trkpt lat="42.841086" lon="1.746751">
        <ele>1522.9</ele>
        <time>2018-10-13T07:11:22Z</time>
      </trkpt>
      <trkpt lat="42.840987" lon="1.746725">
        <ele>1526.1</ele>
        <time>2018-10-13T07:11:36Z</time>
      </trkpt>
      <trkpt lat="42.840902" lon="1.746675">
        <ele>1529.3</ele>
        <time>2018-10-13T07:11:52Z</time>
      </trkpt>
      <trkpt lat="42.840831" lon="1.746597">
        <ele>1531.9</ele>
        <time>2018-10-13T07:12:28Z</time>
      </trkpt>
      <trkpt lat="42.840746" lon="1.746539">
        <ele>1533.2</ele>
        <time>2018-10-13T07:12:40Z</time>
      </trkpt>
      <trkpt lat="42.840659" lon="1.746522">
        <ele>1535.5</ele>
        <time>2018-10-13T07:12:53Z</time>
      </trkpt>
      <trkpt lat="42.840571" lon="1.746478">
        <ele>1537.4</ele>
        <time>2018-10-13T07:13:03Z</time>
      </trkpt>
      <trkpt lat="42.840472" lon="1.746456">
        <ele>1539.7</ele>
        <time>2018-10-13T07:13:16Z</time>
      </trkpt>
      <trkpt lat="42.840388" lon="1.746420">
        <ele>1541.5</ele>
        <time>2018-10-13T07:13:26Z</time>
      </trkpt>
      <trkpt lat="42.840287" lon="1.746402">
        <ele>1543.2</ele>
        <time>2018-10-13T07:13:38Z</time>
      </trkpt>
      <trkpt lat="42.840233" lon="1.746332">
        <ele>1544.2</ele>
        <time>2018-10-13T07:14:08Z</time>
      </trkpt>
      <trkpt lat="42.840163" lon="1.746240">
        <ele>1543.6</ele>
        <time>2018-10-13T07:14:17Z</time>
      </trkpt>
      <trkpt lat="42.840070" lon="1.746162">
        <ele>1543.4</ele>
        <time>2018-10-13T07:14:28Z</time>
      </trkpt>
      <trkpt lat="42.839985" lon="1.746099">
        <ele>1542.9</ele>
        <time>2018-10-13T07:14:36Z</time>
      </trkpt>
      <trkpt lat="42.839893" lon="1.746050">
        <ele>1542.0</ele>
        <time>2018-10-13T07:14:45Z</time>
      </trkpt>
      <trkpt lat="42.839793" lon="1.746033">
        <ele>1541.5</ele>
        <time>2018-10-13T07:14:54Z</time>
      </trkpt>
      <trkpt lat="42.839689" lon="1.746031">
        <ele>1540.9</ele>
        <time>2018-10-13T07:15:01Z</time>
      </trkpt>
      <trkpt lat="42.839597" lon="1.746039">
        <ele>1540.8</ele>
        <time>2018-10-13T07:15:10Z</time>
      </trkpt>
      <trkpt lat="42.839512" lon="1.746080">
        <ele>1541.3</ele>
        <time>2018-10-13T07:15:19Z</time>
      </trkpt>
      <trkpt lat="42.839421" lon="1.746125">
        <ele>1541.7</ele>
        <time>2018-10-13T07:15:27Z</time>
      </trkpt>
      <trkpt lat="42.839346" lon="1.746198">
        <ele>1541.9</ele>
        <time>2018-10-13T07:15:34Z</time>
      </trkpt>
      <trkpt lat="42.839279" lon="1.746277">
        <ele>1542.3</ele>
        <time>2018-10-13T07:15:42Z</time>
      </trkpt>
      <trkpt lat="42.839205" lon="1.746360">
        <ele>1543.0</ele>
        <time>2018-10-13T07:15:50Z</time>
      </trkpt>
      <trkpt lat="42.839126" lon="1.746450">
        <ele>1544.0</ele>
        <time>2018-10-13T07:15:59Z</time>
      </trkpt>
      <trkpt lat="42.839051" lon="1.746522">
        <ele>1546.2</ele>
        <time>2018-10-13T07:16:13Z</time>
      </trkpt>
      <trkpt lat="42.838986" lon="1.746613">
        <ele>1547.9</ele>
        <time>2018-10-13T07:16:25Z</time>
      </trkpt>
      <trkpt lat="42.838929" lon="1.746732">
        <ele>1549.6</ele>
        <time>2018-10-13T07:16:38Z</time>
      </trkpt>
      <trkpt lat="42.838870" lon="1.746854">
        <ele>1551.9</ele>
        <time>2018-10-13T07:16:51Z</time>
      </trkpt>
      <trkpt lat="42.838827" lon="1.746975">
        <ele>1554.3</ele>
        <time>2018-10-13T07:17:03Z</time>
      </trkpt>
      <trkpt lat="42.838761" lon="1.747065">
        <ele>1556.3</ele>
        <time>2018-10-13T07:17:15Z</time>
      </trkpt>
      <trkpt lat="42.838701" lon="1.747171">
        <ele>1558.1</ele>
        <time>2018-10-13T07:17:26Z</time>
      </trkpt>
      <trkpt lat="42.838644" lon="1.747276">
        <ele>1559.5</ele>
        <time>2018-10-13T07:17:38Z</time>
      </trkpt>
      <trkpt lat="42.838582" lon="1.747398">
        <ele>1560.9</ele>
        <time>2018-10-13T07:17:49Z</time>
      </trkpt>
      <trkpt lat="42.838506" lon="1.747485">
        <ele>1562.8</ele>
        <time>2018-10-13T07:18:01Z</time>
      </trkpt>
      <trkpt lat="42.838414" lon="1.747562">
        <ele>1564.9</ele>
        <time>2018-10-13T07:18:14Z</time>
      </trkpt>
      <trkpt lat="42.838331" lon="1.747650">
        <ele>1566.4</ele>
        <time>2018-10-13T07:18:24Z</time>
      </trkpt>
      <trkpt lat="42.838254" lon="1.747746">
        <ele>1567.6</ele>
        <time>2018-10-13T07:18:35Z</time>
      </trkpt>
      <trkpt lat="42.838168" lon="1.747841">
        <ele>1568.7</ele>
        <time>2018-10-13T07:18:48Z</time>
      </trkpt>
      <trkpt lat="42.838092" lon="1.747943">
        <ele>1570.3</ele>
        <time>2018-10-13T07:18:58Z</time>
      </trkpt>
      <trkpt lat="42.838015" lon="1.748042">
        <ele>1572.0</ele>
        <time>2018-10-13T07:19:07Z</time>
      </trkpt>
      <trkpt lat="42.837946" lon="1.748137">
        <ele>1573.3</ele>
        <time>2018-10-13T07:19:16Z</time>
      </trkpt>
      <trkpt lat="42.837875" lon="1.748237">
        <ele>1575.2</ele>
        <time>2018-10-13T07:19:28Z</time>
      </trkpt>
      <trkpt lat="42.837816" lon="1.748354">
        <ele>1577.2</ele>
        <time>2018-10-13T07:19:41Z</time>
      </trkpt>
      <trkpt lat="42.837731" lon="1.748467">
        <ele>1579.6</ele>
        <time>2018-10-13T07:19:53Z</time>
      </trkpt>
      <trkpt lat="42.837698" lon="1.748611">
        <ele>1581.9</ele>
        <time>2018-10-13T07:20:06Z</time>
      </trkpt>
      <trkpt lat="42.837676" lon="1.748740">
        <ele>1584.0</ele>
        <time>2018-10-13T07:20:18Z</time>
      </trkpt>
      <trkpt lat="42.837629" lon="1.748827">
        <ele>1586.1</ele>
        <time>2018-10-13T07:20:30Z</time>
      </trkpt>
      <trkpt lat="42.837568" lon="1.748938">
        <ele>1587.7</ele>
        <time>2018-10-13T07:20:44Z</time>
      </trkpt>
      <trkpt lat="42.837489" lon="1.749058">
        <ele>1590.3</ele>
        <time>2018-10-13T07:21:00Z</time>
      </trkpt>
      <trkpt lat="42.837431" lon="1.749162">
        <ele>1592.1</ele>
        <time>2018-10-13T07:21:13Z</time>
      </trkpt>
      <trkpt lat="42.837380" lon="1.749263">
        <ele>1594.7</ele>
        <time>2018-10-13T07:21:28Z</time>
      </trkpt>
      <trkpt lat="42.837309" lon="1.749391">
        <ele>1597.6</ele>
        <time>2018-10-13T07:21:43Z</time>
      </trkpt>
      <trkpt lat="42.837256" lon="1.749516">
        <ele>1599.6</ele>
        <time>2018-10-13T07:21:55Z</time>
      </trkpt>
      <trkpt lat="42.837198" lon="1.749441">
        <ele>1601.5</ele>
        <time>2018-10-13T07:22:07Z</time>
      </trkpt>
      <trkpt lat="42.837201" lon="1.749289">
        <ele>1602.2</ele>
        <time>2018-10-13T07:22:18Z</time>
      </trkpt>
      <trkpt lat="42.837180" lon="1.749180">
        <ele>1604.0</ele>
        <time>2018-10-13T07:22:30Z</time>
      </trkpt>
      <trkpt lat="42.837125" lon="1.749288">
        <ele>1606.1</ele>
        <time>2018-10-13T07:22:44Z</time>
      </trkpt>
      <trkpt lat="42.837042" lon="1.749328">
        <ele>1608.1</ele>
        <time>2018-10-13T07:23:00Z</time>
      </trkpt>
      <trkpt lat="42.836981" lon="1.749448">
        <ele>1610.3</ele>
        <time>2018-10-13T07:23:14Z</time>
      </trkpt>
      <trkpt lat="42.836888" lon="1.749553">
        <ele>1612.1</ele>
        <time>2018-10-13T07:23:29Z</time>
      </trkpt>
      <trkpt lat="42.836823" lon="1.749663">
        <ele>1613.5</ele>
        <time>2018-10-13T07:23:43Z</time>
      </trkpt>
      <trkpt lat="42.836718" lon="1.749712">
        <ele>1615.8</ele>
        <time>2018-10-13T07:23:58Z</time>
      </trkpt>
      <trkpt lat="42.836627" lon="1.749601">
        <ele>1617.6</ele>
        <time>2018-10-13T07:24:10Z</time>
      </trkpt>
      <trkpt lat="42.836631" lon="1.749473">
        <ele>1619.6</ele>
        <time>2018-10-13T07:24:22Z</time>
      </trkpt>
      <trkpt lat="42.836644" lon="1.749325">
        <ele>1620.8</ele>
        <time>2018-10-13T07:24:34Z</time>
      </trkpt>
      <trkpt lat="42.836608" lon="1.749187">
        <ele>1622.0</ele>
        <time>2018-10-13T07:24:44Z</time>
      </trkpt>
      <trkpt lat="42.836595" lon="1.749043">
        <ele>1622.9</ele>
        <time>2018-10-13T07:24:55Z</time>
      </trkpt>
      <trkpt lat="42.836620" lon="1.748915">
        <ele>1623.7</ele>
        <time>2018-10-13T07:25:03Z</time>
      </trkpt>
      <trkpt lat="42.836635" lon="1.748790">
        <ele>1624.9</ele>
        <time>2018-10-13T07:25:13Z</time>
      </trkpt>
      <trkpt lat="42.836607" lon="1.748676">
        <ele>1625.4</ele>
        <time>2018-10-13T07:25:23Z</time>
      </trkpt>
      <trkpt lat="42.836558" lon="1.748559">
        <ele>1626.3</ele>
        <time>2018-10-13T07:25:34Z</time>
      </trkpt>
      <trkpt lat="42.836549" lon="1.748412">
        <ele>1627.4</ele>
        <time>2018-10-13T07:25:45Z</time>
      </trkpt>
      <trkpt lat="42.836507" lon="1.748261">
        <ele>1630.3</ele>
        <time>2018-10-13T07:26:00Z</time>
      </trkpt>
      <trkpt lat="42.836451" lon="1.748136">
        <ele>1632.2</ele>
        <time>2018-10-13T07:26:11Z</time>
      </trkpt>
      <trkpt lat="42.836353" lon="1.748186">
        <ele>1635.4</ele>
        <time>2018-10-13T07:26:27Z</time>
      </trkpt>
      <trkpt lat="42.836327" lon="1.748263">
        <ele>1637.0</ele>
        <time>2018-10-13T07:27:43Z</time>
      </trkpt>
      <trkpt lat="42.836285" lon="1.748390">
        <ele>1638.6</ele>
        <time>2018-10-13T07:28:00Z</time>
      </trkpt>
      <trkpt lat="42.836272" lon="1.748496">
        <ele>1641.5</ele>
        <time>2018-10-13T07:28:30Z</time>
      </trkpt>
      <trkpt lat="42.836248" lon="1.748622">
        <ele>1643.0</ele>
        <time>2018-10-13T07:28:45Z</time>
      </trkpt>
      <trkpt lat="42.836214" lon="1.748768">
        <ele>1645.0</ele>
        <time>2018-10-13T07:28:59Z</time>
      </trkpt>
      <trkpt lat="42.836168" lon="1.748883">
        <ele>1646.5</ele>
        <time>2018-10-13T07:29:09Z</time>
      </trkpt>
      <trkpt lat="42.836121" lon="1.749014">
        <ele>1648.1</ele>
        <time>2018-10-13T07:29:24Z</time>
      </trkpt>
      <trkpt lat="42.836078" lon="1.749140">
        <ele>1650.4</ele>
        <time>2018-10-13T07:29:39Z</time>
      </trkpt>
      <trkpt lat="42.835988" lon="1.749224">
        <ele>1652.1</ele>
        <time>2018-10-13T07:29:53Z</time>
      </trkpt>
      <trkpt lat="42.835901" lon="1.749297">
        <ele>1654.3</ele>
        <time>2018-10-13T07:30:07Z</time>
      </trkpt>
      <trkpt lat="42.835796" lon="1.749357">
        <ele>1656.4</ele>
        <time>2018-10-13T07:30:21Z</time>
      </trkpt>
      <trkpt lat="42.835737" lon="1.749450">
        <ele>1658.7</ele>
        <time>2018-10-13T07:30:37Z</time>
      </trkpt>
      <trkpt lat="42.835645" lon="1.749545">
        <ele>1660.6</ele>
        <time>2018-10-13T07:30:53Z</time>
      </trkpt>
      <trkpt lat="42.835567" lon="1.749456">
        <ele>1663.2</ele>
        <time>2018-10-13T07:31:09Z</time>
      </trkpt>
      <trkpt lat="42.835516" lon="1.749276">
        <ele>1664.9</ele>
        <time>2018-10-13T07:31:23Z</time>
      </trkpt>
      <trkpt lat="42.835525" lon="1.749142">
        <ele>1665.7</ele>
        <time>2018-10-13T07:31:35Z</time>
      </trkpt>
      <trkpt lat="42.835488" lon="1.749005">
        <ele>1666.3</ele>
        <time>2018-10-13T07:31:47Z</time>
      </trkpt>
      <trkpt lat="42.835472" lon="1.748855">
        <ele>1667.4</ele>
        <time>2018-10-13T07:31:59Z</time>
      </trkpt>
      <trkpt lat="42.835485" lon="1.748702">
        <ele>1668.6</ele>
        <time>2018-10-13T07:32:12Z</time>
      </trkpt>
      <trkpt lat="42.835509" lon="1.748580">
        <ele>1670.8</ele>
        <time>2018-10-13T07:32:24Z</time>
      </trkpt>
      <trkpt lat="42.835506" lon="1.748444">
        <ele>1672.4</ele>
        <time>2018-10-13T07:32:36Z</time>
      </trkpt>
      <trkpt lat="42.835451" lon="1.748340">
        <ele>1673.6</ele>
        <time>2018-10-13T07:32:49Z</time>
      </trkpt>
      <trkpt lat="42.835352" lon="1.748285">
        <ele>1675.1</ele>
        <time>2018-10-13T07:33:01Z</time>
      </trkpt>
      <trkpt lat="42.835259" lon="1.748298">
        <ele>1677.2</ele>
        <time>2018-10-13T07:33:14Z</time>
      </trkpt>
      <trkpt lat="42.835179" lon="1.748384">
        <ele>1679.7</ele>
        <time>2018-10-13T07:33:29Z</time>
      </trkpt>
      <trkpt lat="42.835076" lon="1.748377">
        <ele>1682.1</ele>
        <time>2018-10-13T07:33:44Z</time>
      </trkpt>
      <trkpt lat="42.834975" lon="1.748364">
        <ele>1684.4</ele>
        <time>2018-10-13T07:33:58Z</time>
      </trkpt>
      <trkpt lat="42.834875" lon="1.748388">
        <ele>1687.2</ele>
        <time>2018-10-13T07:34:13Z</time>
      </trkpt>
      <trkpt lat="42.834779" lon="1.748395">
        <ele>1689.2</ele>
        <time>2018-10-13T07:34:28Z</time>
      </trkpt>
      <trkpt lat="42.834672" lon="1.748397">
        <ele>1690.9</ele>
        <time>2018-10-13T07:34:43Z</time>
      </trkpt>
      <trkpt lat="42.834590" lon="1.748337">
        <ele>1692.1</ele>
        <time>2018-10-13T07:34:55Z</time>
      </trkpt>
      <trkpt lat="42.834510" lon="1.748250">
        <ele>1692.7</ele>
        <time>2018-10-13T07:35:06Z</time>
      </trkpt>
      <trkpt lat="42.834421" lon="1.748238">
        <ele>1694.8</ele>
        <time>2018-10-13T07:35:19Z</time>
      </trkpt>
      <trkpt lat="42.834345" lon="1.748326">
        <ele>1697.6</ele>
        <time>2018-10-13T07:35:35Z</time>
      </trkpt>
      <trkpt lat="42.834266" lon="1.748404">
        <ele>1700.1</ele>
        <time>2018-10-13T07:35:48Z</time>
      </trkpt>
      <trkpt lat="42.834169" lon="1.748446">
        <ele>1702.1</ele>
        <time>2018-10-13T07:36:00Z</time>
      </trkpt>
      <trkpt lat="42.834095" lon="1.748545">
        <ele>1703.7</ele>
        <time>2018-10-13T07:36:10Z</time>
      </trkpt>
      <trkpt lat="42.834016" lon="1.748604">
        <ele>1705.3</ele>
        <time>2018-10-13T07:36:19Z</time>
      </trkpt>
      <trkpt lat="42.833933" lon="1.748695">
        <ele>1706.8</ele>
        <time>2018-10-13T07:36:29Z</time>
      </trkpt>
      <trkpt lat="42.833852" lon="1.748742">
        <ele>1708.4</ele>
        <time>2018-10-13T07:36:38Z</time>
      </trkpt>
      <trkpt lat="42.833757" lon="1.748766">
        <ele>1709.4</ele>
        <time>2018-10-13T07:36:47Z</time>
      </trkpt>
      <trkpt lat="42.833668" lon="1.748761">
        <ele>1710.5</ele>
        <time>2018-10-13T07:36:56Z</time>
      </trkpt>
      <trkpt lat="42.833570" lon="1.748758">
        <ele>1712.3</ele>
        <time>2018-10-13T07:37:06Z</time>
      </trkpt>
      <trkpt lat="42.833466" lon="1.748778">
        <ele>1714.4</ele>
        <time>2018-10-13T07:37:17Z</time>
      </trkpt>
      <trkpt lat="42.833375" lon="1.748810">
        <ele>1715.9</ele>
        <time>2018-10-13T07:37:26Z</time>
      </trkpt>
      <trkpt lat="42.833290" lon="1.748882">
        <ele>1718.0</ele>
        <time>2018-10-13T07:37:37Z</time>
      </trkpt>
      <trkpt lat="42.833202" lon="1.748976">
        <ele>1719.9</ele>
        <time>2018-10-13T07:37:49Z</time>
      </trkpt>
      <trkpt lat="42.833128" lon="1.749067">
        <ele>1721.9</ele>
        <time>2018-10-13T07:37:59Z</time>
      </trkpt>
      <trkpt lat="42.833053" lon="1.749149">
        <ele>1723.1</ele>
        <time>2018-10-13T07:38:08Z</time>
      </trkpt>
      <trkpt lat="42.832985" lon="1.749241">
        <ele>1725.9</ele>
        <time>2018-10-13T07:38:20Z</time>
      </trkpt>
      <trkpt lat="42.832910" lon="1.749340">
        <ele>1727.8</ele>
        <time>2018-10-13T07:38:30Z</time>
      </trkpt>
      <trkpt lat="42.832833" lon="1.749416">
        <ele>1729.1</ele>
        <time>2018-10-13T07:38:41Z</time>
      </trkpt>
      <trkpt lat="42.832745" lon="1.749402">
        <ele>1731.1</ele>
        <time>2018-10-13T07:38:52Z</time>
      </trkpt>
      <trkpt lat="42.832662" lon="1.749314">
        <ele>1733.2</ele>
        <time>2018-10-13T07:39:02Z</time>
      </trkpt>
      <trkpt lat="42.832592" lon="1.749230">
        <ele>1734.2</ele>
        <time>2018-10-13T07:39:11Z</time>
      </trkpt>
      <trkpt lat="42.832507" lon="1.749158">
        <ele>1735.7</ele>
        <time>2018-10-13T07:39:20Z</time>
      </trkpt>
      <trkpt lat="42.832416" lon="1.749137">
        <ele>1737.1</ele>
        <time>2018-10-13T07:39:29Z</time>
      </trkpt>
      <trkpt lat="42.832327" lon="1.749100">
        <ele>1737.7</ele>
        <time>2018-10-13T07:39:39Z</time>
      </trkpt>
      <trkpt lat="42.832232" lon="1.749067">
        <ele>1738.6</ele>
        <time>2018-10-13T07:39:49Z</time>
      </trkpt>
      <trkpt lat="42.832195" lon="1.749013">
        <ele>1739.7</ele>
        <time>2018-10-13T07:42:23Z</time>
      </trkpt>
      <trkpt lat="42.832091" lon="1.748950">
        <ele>1739.5</ele>
        <time>2018-10-13T07:42:32Z</time>
      </trkpt>
      <trkpt lat="42.832002" lon="1.748879">
        <ele>1740.2</ele>
        <time>2018-10-13T07:42:42Z</time>
      </trkpt>
      <trkpt lat="42.831911" lon="1.748812">
        <ele>1740.4</ele>
        <time>2018-10-13T07:42:51Z</time>
      </trkpt>
      <trkpt lat="42.831811" lon="1.748763">
        <ele>1740.9</ele>
        <time>2018-10-13T07:42:59Z</time>
      </trkpt>
      <trkpt lat="42.831717" lon="1.748705">
        <ele>1741.9</ele>
        <time>2018-10-13T07:43:08Z</time>
      </trkpt>
      <trkpt lat="42.831635" lon="1.748650">
        <ele>1742.8</ele>
        <time>2018-10-13T07:43:16Z</time>
      </trkpt>
      <trkpt lat="42.831550" lon="1.748628">
        <ele>1745.3</ele>
        <time>2018-10-13T07:43:46Z</time>
      </trkpt>
      <trkpt lat="42.831445" lon="1.748571">
        <ele>1745.3</ele>
        <time>2018-10-13T07:43:55Z</time>
      </trkpt>
      <trkpt lat="42.831340" lon="1.748566">
        <ele>1761.2</ele>
        <time>2018-10-13T07:44:04Z</time>
      </trkpt>
      <trkpt lat="42.831252" lon="1.748553">
        <ele>1762.7</ele>
        <time>2018-10-13T07:44:14Z</time>
      </trkpt>
      <trkpt lat="42.831162" lon="1.748566">
        <ele>1763.5</ele>
        <time>2018-10-13T07:44:34Z</time>
      </trkpt>
      <trkpt lat="42.831084" lon="1.748600">
        <ele>1764.1</ele>
        <time>2018-10-13T07:44:56Z</time>
      </trkpt>
      <trkpt lat="42.831019" lon="1.748686">
        <ele>1763.4</ele>
        <time>2018-10-13T07:45:07Z</time>
      </trkpt>
      <trkpt lat="42.830954" lon="1.748768">
        <ele>1762.8</ele>
        <time>2018-10-13T07:45:20Z</time>
      </trkpt>
      <trkpt lat="42.830880" lon="1.748793">
        <ele>1750.0</ele>
        <time>2018-10-13T07:47:10Z</time>
      </trkpt>
      <trkpt lat="42.830806" lon="1.748914">
        <ele>1750.8</ele>
        <time>2018-10-13T07:47:29Z</time>
      </trkpt>
      <trkpt lat="42.830730" lon="1.749008">
        <ele>1752.5</ele>
        <time>2018-10-13T07:47:40Z</time>
      </trkpt>
      <trkpt lat="42.830660" lon="1.749109">
        <ele>1754.0</ele>
        <time>2018-10-13T07:47:50Z</time>
      </trkpt>
      <trkpt lat="42.830576" lon="1.749216">
        <ele>1755.8</ele>
        <time>2018-10-13T07:48:03Z</time>
      </trkpt>
      <trkpt lat="42.830495" lon="1.749307">
        <ele>1757.2</ele>
        <time>2018-10-13T07:48:13Z</time>
      </trkpt>
      <trkpt lat="42.830444" lon="1.749419">
        <ele>1758.6</ele>
        <time>2018-10-13T07:48:24Z</time>
      </trkpt>
      <trkpt lat="42.830376" lon="1.749534">
        <ele>1760.1</ele>
        <time>2018-10-13T07:48:36Z</time>
      </trkpt>
      <trkpt lat="42.830356" lon="1.749652">
        <ele>1761.5</ele>
        <time>2018-10-13T07:48:49Z</time>
      </trkpt>
      <trkpt lat="42.830370" lon="1.749801">
        <ele>1762.7</ele>
        <time>2018-10-13T07:49:02Z</time>
      </trkpt>
      <trkpt lat="42.830402" lon="1.749936">
        <ele>1765.3</ele>
        <time>2018-10-13T07:49:16Z</time>
      </trkpt>
      <trkpt lat="42.830385" lon="1.750057">
        <ele>1767.3</ele>
        <time>2018-10-13T07:49:29Z</time>
      </trkpt>
      <trkpt lat="42.830358" lon="1.750182">
        <ele>1771.3</ele>
        <time>2018-10-13T07:49:48Z</time>
      </trkpt>
      <trkpt lat="42.830322" lon="1.750295">
        <ele>1772.6</ele>
        <time>2018-10-13T07:50:04Z</time>
      </trkpt>
      <trkpt lat="42.830231" lon="1.750371">
        <ele>1775.4</ele>
        <time>2018-10-13T07:50:17Z</time>
      </trkpt>
      <trkpt lat="42.830143" lon="1.750472">
        <ele>1777.1</ele>
        <time>2018-10-13T07:50:27Z</time>
      </trkpt>
      <trkpt lat="42.830069" lon="1.750570">
        <ele>1778.6</ele>
        <time>2018-10-13T07:50:38Z</time>
      </trkpt>
      <trkpt lat="42.829988" lon="1.750603">
        <ele>1780.1</ele>
        <time>2018-10-13T07:51:58Z</time>
      </trkpt>
      <trkpt lat="42.829887" lon="1.750680">
        <ele>1781.6</ele>
        <time>2018-10-13T07:52:13Z</time>
      </trkpt>
      <trkpt lat="42.829802" lon="1.750758">
        <ele>1784.9</ele>
        <time>2018-10-13T07:52:30Z</time>
      </trkpt>
      <trkpt lat="42.829711" lon="1.750737">
        <ele>1787.7</ele>
        <time>2018-10-13T07:52:44Z</time>
      </trkpt>
      <trkpt lat="42.829627" lon="1.750792">
        <ele>1790.5</ele>
        <time>2018-10-13T07:52:59Z</time>
      </trkpt>
      <trkpt lat="42.829533" lon="1.750840">
        <ele>1794.1</ele>
        <time>2018-10-13T07:53:14Z</time>
      </trkpt>
      <trkpt lat="42.829445" lon="1.750886">
        <ele>1797.1</ele>
        <time>2018-10-13T07:53:32Z</time>
      </trkpt>
      <trkpt lat="42.829365" lon="1.750925">
        <ele>1800.6</ele>
        <time>2018-10-13T07:53:50Z</time>
      </trkpt>
      <trkpt lat="42.829307" lon="1.751079">
        <ele>1807.4</ele>
        <time>2018-10-13T07:54:32Z</time>
      </trkpt>
      <trkpt lat="42.829234" lon="1.751164">
        <ele>1811.7</ele>
        <time>2018-10-13T07:54:49Z</time>
      </trkpt>
      <trkpt lat="42.829160" lon="1.751235">
        <ele>1815.7</ele>
        <time>2018-10-13T07:55:06Z</time>
      </trkpt>
      <trkpt lat="42.829122" lon="1.751329">
        <ele>1819.0</ele>
        <time>2018-10-13T07:55:22Z</time>
      </trkpt>
      <trkpt lat="42.829107" lon="1.751436">
        <ele>1823.0</ele>
        <time>2018-10-13T07:55:39Z</time>
      </trkpt>
      <trkpt lat="42.829049" lon="1.751555">
        <ele>1825.7</ele>
        <time>2018-10-13T07:55:54Z</time>
      </trkpt>
      <trkpt lat="42.829008" lon="1.751670">
        <ele>1826.7</ele>
        <time>2018-10-13T07:56:06Z</time>
      </trkpt>
      <trkpt lat="42.829012" lon="1.751794">
        <ele>1826.3</ele>
        <time>2018-10-13T07:56:18Z</time>
      </trkpt>
      <trkpt lat="42.828964" lon="1.751907">
        <ele>1827.6</ele>
        <time>2018-10-13T07:56:33Z</time>
      </trkpt>
      <trkpt lat="42.828901" lon="1.752021">
        <ele>1828.1</ele>
        <time>2018-10-13T07:56:45Z</time>
      </trkpt>
      <trkpt lat="42.828924" lon="1.752146">
        <ele>1831.2</ele>
        <time>2018-10-13T07:56:59Z</time>
      </trkpt>
      <trkpt lat="42.828954" lon="1.752256">
        <ele>1836.2</ele>
        <time>2018-10-13T07:57:17Z</time>
      </trkpt>
      <trkpt lat="42.828925" lon="1.752394">
        <ele>1839.0</ele>
        <time>2018-10-13T07:57:31Z</time>
      </trkpt>
      <trkpt lat="42.828884" lon="1.752523">
        <ele>1840.0</ele>
        <time>2018-10-13T07:57:41Z</time>
      </trkpt>
      <trkpt lat="42.828876" lon="1.752657">
        <ele>1840.4</ele>
        <time>2018-10-13T07:57:49Z</time>
      </trkpt>
      <trkpt lat="42.828900" lon="1.752798">
        <ele>1841.6</ele>
        <time>2018-10-13T07:58:01Z</time>
      </trkpt>
      <trkpt lat="42.828870" lon="1.752915">
        <ele>1842.3</ele>
        <time>2018-10-13T07:58:12Z</time>
      </trkpt>
      <trkpt lat="42.828822" lon="1.753038">
        <ele>1843.8</ele>
        <time>2018-10-13T07:58:25Z</time>
      </trkpt>
      <trkpt lat="42.828807" lon="1.753183">
        <ele>1845.2</ele>
        <time>2018-10-13T07:58:39Z</time>
      </trkpt>
      <trkpt lat="42.828790" lon="1.753323">
        <ele>1846.0</ele>
        <time>2018-10-13T07:58:48Z</time>
      </trkpt>
      <trkpt lat="42.828742" lon="1.753442">
        <ele>1846.5</ele>
        <time>2018-10-13T07:58:57Z</time>
      </trkpt>
      <trkpt lat="42.828692" lon="1.753560">
        <ele>1846.5</ele>
        <time>2018-10-13T07:59:07Z</time>
      </trkpt>
      <trkpt lat="42.828633" lon="1.753695">
        <ele>1847.0</ele>
        <time>2018-10-13T07:59:18Z</time>
      </trkpt>
      <trkpt lat="42.828565" lon="1.753788">
        <ele>1847.7</ele>
        <time>2018-10-13T07:59:28Z</time>
      </trkpt>
      <trkpt lat="42.828480" lon="1.753865">
        <ele>1848.0</ele>
        <time>2018-10-13T07:59:37Z</time>
      </trkpt>
      <trkpt lat="42.828391" lon="1.753938">
        <ele>1848.3</ele>
        <time>2018-10-13T07:59:46Z</time>
      </trkpt>
      <trkpt lat="42.828318" lon="1.754001">
        <ele>1849.2</ele>
        <time>2018-10-13T07:59:54Z</time>
      </trkpt>
      <trkpt lat="42.828235" lon="1.754062">
        <ele>1850.5</ele>
        <time>2018-10-13T08:00:04Z</time>
      </trkpt>
      <trkpt lat="42.828168" lon="1.754110">
        <ele>1851.7</ele>
        <time>2018-10-13T08:00:42Z</time>
      </trkpt>
      <trkpt lat="42.828103" lon="1.754127">
        <ele>1853.0</ele>
        <time>2018-10-13T08:04:23Z</time>
      </trkpt>
      <trkpt lat="42.828025" lon="1.754191">
        <ele>1852.8</ele>
        <time>2018-10-13T08:04:33Z</time>
      </trkpt>
      <trkpt lat="42.827935" lon="1.754256">
        <ele>1852.8</ele>
        <time>2018-10-13T08:04:42Z</time>
      </trkpt>
      <trkpt lat="42.827853" lon="1.754323">
        <ele>1852.6</ele>
        <time>2018-10-13T08:04:50Z</time>
      </trkpt>
      <trkpt lat="42.827781" lon="1.754401">
        <ele>1852.1</ele>
        <time>2018-10-13T08:04:59Z</time>
      </trkpt>
      <trkpt lat="42.827702" lon="1.754466">
        <ele>1851.3</ele>
        <time>2018-10-13T08:05:08Z</time>
      </trkpt>
      <trkpt lat="42.827626" lon="1.754527">
        <ele>1850.2</ele>
        <time>2018-10-13T08:05:17Z</time>
      </trkpt>
      <trkpt lat="42.827557" lon="1.754600">
        <ele>1849.1</ele>
        <time>2018-10-13T08:05:26Z</time>
      </trkpt>
      <trkpt lat="42.827461" lon="1.754658">
        <ele>1847.9</ele>
        <time>2018-10-13T08:05:35Z</time>
      </trkpt>
      <trkpt lat="42.827368" lon="1.754679">
        <ele>1847.4</ele>
        <time>2018-10-13T08:05:43Z</time>
      </trkpt>
      <trkpt lat="42.827264" lon="1.754706">
        <ele>1847.1</ele>
        <time>2018-10-13T08:05:52Z</time>
      </trkpt>
      <trkpt lat="42.827191" lon="1.754778">
        <ele>1847.4</ele>
        <time>2018-10-13T08:06:01Z</time>
      </trkpt>
      <trkpt lat="42.827137" lon="1.754879">
        <ele>1847.8</ele>
        <time>2018-10-13T08:06:10Z</time>
      </trkpt>
      <trkpt lat="42.827133" lon="1.755001">
        <ele>1847.4</ele>
        <time>2018-10-13T08:06:18Z</time>
      </trkpt>
      <trkpt lat="42.827059" lon="1.755084">
        <ele>1846.3</ele>
        <time>2018-10-13T08:06:27Z</time>
      </trkpt>
      <trkpt lat="42.826959" lon="1.755133">
        <ele>1844.8</ele>
        <time>2018-10-13T08:06:36Z</time>
      </trkpt>
      <trkpt lat="42.826873" lon="1.755185">
        <ele>1843.3</ele>
        <time>2018-10-13T08:06:44Z</time>
      </trkpt>
      <trkpt lat="42.826787" lon="1.755200">
        <ele>1841.9</ele>
        <time>2018-10-13T08:06:51Z</time>
      </trkpt>
      <trkpt lat="42.826727" lon="1.755285">
        <ele>1840.9</ele>
        <time>2018-10-13T08:06:59Z</time>
      </trkpt>
      <trkpt lat="42.826663" lon="1.755377">
        <ele>1839.2</ele>
        <time>2018-10-13T08:07:08Z</time>
      </trkpt>
      <trkpt lat="42.826615" lon="1.755490">
        <ele>1836.8</ele>
        <time>2018-10-13T08:07:15Z</time>
      </trkpt>
      <trkpt lat="42.826599" lon="1.755614">
        <ele>1834.8</ele>
        <time>2018-10-13T08:07:23Z</time>
      </trkpt>
      <trkpt lat="42.826525" lon="1.755661">
        <ele>1834.0</ele>
        <time>2018-10-13T08:07:30Z</time>
      </trkpt>
      <trkpt lat="42.826435" lon="1.755679">
        <ele>1832.5</ele>
        <time>2018-10-13T08:07:39Z</time>
      </trkpt>
      <trkpt lat="42.826359" lon="1.755755">
        <ele>1831.5</ele>
        <time>2018-10-13T08:07:47Z</time>
      </trkpt>
      <trkpt lat="42.826272" lon="1.755747">
        <ele>1831.1</ele>
        <time>2018-10-13T08:07:57Z</time>
      </trkpt>
      <trkpt lat="42.826180" lon="1.755720">
        <ele>1828.2</ele>
        <time>2018-10-13T08:08:12Z</time>
      </trkpt>
      <trkpt lat="42.826091" lon="1.755773">
        <ele>1825.5</ele>
        <time>2018-10-13T08:08:24Z</time>
      </trkpt>
      <trkpt lat="42.826020" lon="1.755863">
        <ele>1824.2</ele>
        <time>2018-10-13T08:08:34Z</time>
      </trkpt>
      <trkpt lat="42.825913" lon="1.755862">
        <ele>1824.8</ele>
        <time>2018-10-13T08:08:45Z</time>
      </trkpt>
      <trkpt lat="42.825817" lon="1.755849">
        <ele>1826.5</ele>
        <time>2018-10-13T08:08:58Z</time>
      </trkpt>
      <trkpt lat="42.825726" lon="1.755871">
        <ele>1827.8</ele>
        <time>2018-10-13T08:09:11Z</time>
      </trkpt>
      <trkpt lat="42.825646" lon="1.755940">
        <ele>1826.7</ele>
        <time>2018-10-13T08:09:20Z</time>
      </trkpt>
      <trkpt lat="42.825587" lon="1.755940">
        <ele>1825.8</ele>
        <time>2018-10-13T08:09:51Z</time>
      </trkpt>
      <trkpt lat="42.825500" lon="1.756023">
        <ele>1826.0</ele>
        <time>2018-10-13T08:10:00Z</time>
      </trkpt>
      <trkpt lat="42.825403" lon="1.756073">
        <ele>1826.1</ele>
        <time>2018-10-13T08:10:09Z</time>
      </trkpt>
      <trkpt lat="42.825303" lon="1.756059">
        <ele>1826.6</ele>
        <time>2018-10-13T08:10:18Z</time>
      </trkpt>
      <trkpt lat="42.825209" lon="1.756105">
        <ele>1826.5</ele>
        <time>2018-10-13T08:10:27Z</time>
      </trkpt>
      <trkpt lat="42.825141" lon="1.756197">
        <ele>1828.1</ele>
        <time>2018-10-13T08:10:40Z</time>
      </trkpt>
      <trkpt lat="42.825068" lon="1.756281">
        <ele>1829.3</ele>
        <time>2018-10-13T08:10:51Z</time>
      </trkpt>
      <trkpt lat="42.824991" lon="1.756372">
        <ele>1831.8</ele>
        <time>2018-10-13T08:11:10Z</time>
      </trkpt>
      <trkpt lat="42.824926" lon="1.756458">
        <ele>1834.1</ele>
        <time>2018-10-13T08:11:27Z</time>
      </trkpt>
      <trkpt lat="42.824915" lon="1.756582">
        <ele>1836.7</ele>
        <time>2018-10-13T08:11:47Z</time>
      </trkpt>
      <trkpt lat="42.824912" lon="1.756717">
        <ele>1837.3</ele>
        <time>2018-10-13T08:12:02Z</time>
      </trkpt>
      <trkpt lat="42.824922" lon="1.756849">
        <ele>1839.3</ele>
        <time>2018-10-13T08:12:16Z</time>
      </trkpt>
      <trkpt lat="42.824963" lon="1.756964">
        <ele>1839.1</ele>
        <time>2018-10-13T08:12:28Z</time>
      </trkpt>
      <trkpt lat="42.825056" lon="1.757021">
        <ele>1837.1</ele>
        <time>2018-10-13T08:12:38Z</time>
      </trkpt>
      <trkpt lat="42.825127" lon="1.757107">
        <ele>1835.5</ele>
        <time>2018-10-13T08:12:47Z</time>
      </trkpt>
      <trkpt lat="42.825197" lon="1.757224">
        <ele>1834.6</ele>
        <time>2018-10-13T08:12:56Z</time>
      </trkpt>
      <trkpt lat="42.825267" lon="1.757311">
        <ele>1833.6</ele>
        <time>2018-10-13T08:13:05Z</time>
      </trkpt>
      <trkpt lat="42.825326" lon="1.757422">
        <ele>1832.6</ele>
        <time>2018-10-13T08:13:14Z</time>
      </trkpt>
      <trkpt lat="42.825308" lon="1.757557">
        <ele>1831.2</ele>
        <time>2018-10-13T08:13:22Z</time>
      </trkpt>
      <trkpt lat="42.825319" lon="1.757696">
        <ele>1829.5</ele>
        <time>2018-10-13T08:13:30Z</time>
      </trkpt>
      <trkpt lat="42.825308" lon="1.757806">
        <ele>1827.1</ele>
        <time>2018-10-13T08:13:39Z</time>
      </trkpt>
      <trkpt lat="42.825222" lon="1.757893">
        <ele>1825.1</ele>
        <time>2018-10-13T08:13:58Z</time>
      </trkpt>
      <trkpt lat="42.825122" lon="1.757977">
        <ele>1824.2</ele>
        <time>2018-10-13T08:14:06Z</time>
      </trkpt>
      <trkpt lat="42.825031" lon="1.758040">
        <ele>1823.5</ele>
        <time>2018-10-13T08:14:14Z</time>
      </trkpt>
      <trkpt lat="42.824959" lon="1.758132">
        <ele>1822.6</ele>
        <time>2018-10-13T08:14:22Z</time>
      </trkpt>
      <trkpt lat="42.824890" lon="1.758235">
        <ele>1822.3</ele>
        <time>2018-10-13T08:14:30Z</time>
      </trkpt>
      <trkpt lat="42.824836" lon="1.758348">
        <ele>1821.1</ele>
        <time>2018-10-13T08:14:39Z</time>
      </trkpt>
      <trkpt lat="42.824862" lon="1.758473">
        <ele>1818.3</ele>
        <time>2018-10-13T08:14:52Z</time>
      </trkpt>
      <trkpt lat="42.824871" lon="1.758607">
        <ele>1815.0</ele>
        <time>2018-10-13T08:15:05Z</time>
      </trkpt>
      <trkpt lat="42.824914" lon="1.758719">
        <ele>1811.0</ele>
        <time>2018-10-13T08:15:19Z</time>
      </trkpt>
      <trkpt lat="42.824940" lon="1.758837">
        <ele>1808.0</ele>
        <time>2018-10-13T08:15:33Z</time>
      </trkpt>
      <trkpt lat="42.825022" lon="1.758931">
        <ele>1805.9</ele>
        <time>2018-10-13T08:15:46Z</time>
      </trkpt>
      <trkpt lat="42.825078" lon="1.759056">
        <ele>1803.9</ele>
        <time>2018-10-13T08:15:57Z</time>
      </trkpt>
      <trkpt lat="42.825107" lon="1.759178">
        <ele>1803.2</ele>
        <time>2018-10-13T08:16:05Z</time>
      </trkpt>
      <trkpt lat="42.825143" lon="1.759309">
        <ele>1803.8</ele>
        <time>2018-10-13T08:16:14Z</time>
      </trkpt>
      <trkpt lat="42.825198" lon="1.759418">
        <ele>1803.5</ele>
        <time>2018-10-13T08:16:23Z</time>
      </trkpt>
      <trkpt lat="42.825213" lon="1.759541">
        <ele>1803.0</ele>
        <time>2018-10-13T08:16:32Z</time>
      </trkpt>
      <trkpt lat="42.825193" lon="1.759677">
        <ele>1803.1</ele>
        <time>2018-10-13T08:16:41Z</time>
      </trkpt>
      <trkpt lat="42.825135" lon="1.759779">
        <ele>1803.9</ele>
        <time>2018-10-13T08:16:52Z</time>
      </trkpt>
      <trkpt lat="42.825066" lon="1.759875">
        <ele>1806.7</ele>
        <time>2018-10-13T08:17:21Z</time>
      </trkpt>
      <trkpt lat="42.824990" lon="1.759976">
        <ele>1808.3</ele>
        <time>2018-10-13T08:17:32Z</time>
      </trkpt>
      <trkpt lat="42.824919" lon="1.760057">
        <ele>1809.1</ele>
        <time>2018-10-13T08:17:41Z</time>
      </trkpt>
      <trkpt lat="42.824848" lon="1.760134">
        <ele>1810.8</ele>
        <time>2018-10-13T08:17:53Z</time>
      </trkpt>
      <trkpt lat="42.824789" lon="1.760162">
        <ele>1813.2</ele>
        <time>2018-10-13T08:18:08Z</time>
      </trkpt>
      <trkpt lat="42.824719" lon="1.760239">
        <ele>1815.2</ele>
        <time>2018-10-13T08:18:19Z</time>
      </trkpt>
      <trkpt lat="42.824635" lon="1.760286">
        <ele>1817.2</ele>
        <time>2018-10-13T08:18:30Z</time>
      </trkpt>
      <trkpt lat="42.824554" lon="1.760291">
        <ele>1818.5</ele>
        <time>2018-10-13T08:18:41Z</time>
      </trkpt>
      <trkpt lat="42.824458" lon="1.760331">
        <ele>1820.8</ele>
        <time>2018-10-13T08:18:53Z</time>
      </trkpt>
      <trkpt lat="42.824362" lon="1.760339">
        <ele>1823.3</ele>
        <time>2018-10-13T08:19:06Z</time>
      </trkpt>
      <trkpt lat="42.824278" lon="1.760323">
        <ele>1825.1</ele>
        <time>2018-10-13T08:19:17Z</time>
      </trkpt>
      <trkpt lat="42.824196" lon="1.760369">
        <ele>1826.9</ele>
        <time>2018-10-13T08:19:29Z</time>
      </trkpt>
      <trkpt lat="42.824101" lon="1.760384">
        <ele>1829.2</ele>
        <time>2018-10-13T08:19:42Z</time>
      </trkpt>
      <trkpt lat="42.824023" lon="1.760370">
        <ele>1832.4</ele>
        <time>2018-10-13T08:20:31Z</time>
      </trkpt>
      <trkpt lat="42.823934" lon="1.760416">
        <ele>1835.5</ele>
        <time>2018-10-13T08:20:49Z</time>
      </trkpt>
      <trkpt lat="42.823856" lon="1.760475">
        <ele>1838.5</ele>
        <time>2018-10-13T08:21:06Z</time>
      </trkpt>
      <trkpt lat="42.823761" lon="1.760498">
        <ele>1841.4</ele>
        <time>2018-10-13T08:21:24Z</time>
      </trkpt>
      <trkpt lat="42.823671" lon="1.760520">
        <ele>1843.5</ele>
        <time>2018-10-13T08:21:39Z</time>
      </trkpt>
      <trkpt lat="42.823617" lon="1.760493">
        <ele>1845.9</ele>
        <time>2018-10-13T08:22:01Z</time>
      </trkpt>
      <trkpt lat="42.823528" lon="1.760562">
        <ele>1848.1</ele>
        <time>2018-10-13T08:22:14Z</time>
      </trkpt>
      <trkpt lat="42.823447" lon="1.760637">
        <ele>1850.3</ele>
        <time>2018-10-13T08:22:25Z</time>
      </trkpt>
      <trkpt lat="42.823377" lon="1.760624">
        <ele>1850.6</ele>
        <time>2018-10-13T08:22:44Z</time>
      </trkpt>
      <trkpt lat="42.823288" lon="1.760668">
        <ele>1850.5</ele>
        <time>2018-10-13T08:23:08Z</time>
      </trkpt>
      <trkpt lat="42.823202" lon="1.760700">
        <ele>1849.7</ele>
        <time>2018-10-13T08:23:17Z</time>
      </trkpt>
      <trkpt lat="42.823111" lon="1.760746">
        <ele>1849.6</ele>
        <time>2018-10-13T08:23:29Z</time>
      </trkpt>
      <trkpt lat="42.823016" lon="1.760795">
        <ele>1849.0</ele>
        <time>2018-10-13T08:23:38Z</time>
      </trkpt>
      <trkpt lat="42.822942" lon="1.760887">
        <ele>1847.4</ele>
        <time>2018-10-13T08:23:51Z</time>
      </trkpt>
      <trkpt lat="42.822847" lon="1.760943">
        <ele>1848.0</ele>
        <time>2018-10-13T08:24:06Z</time>
      </trkpt>
      <trkpt lat="42.822803" lon="1.761030">
        <ele>1849.4</ele>
        <time>2018-10-13T08:24:21Z</time>
      </trkpt>
      <trkpt lat="42.822804" lon="1.761147">
        <ele>1852.6</ele>
        <time>2018-10-13T08:24:36Z</time>
      </trkpt>
      <trkpt lat="42.822738" lon="1.761157">
        <ele>1856.1</ele>
        <time>2018-10-13T08:24:55Z</time>
      </trkpt>
      <trkpt lat="42.822695" lon="1.761264">
        <ele>1859.8</ele>
        <time>2018-10-13T08:25:17Z</time>
      </trkpt>
      <trkpt lat="42.822609" lon="1.761285">
        <ele>1864.3</ele>
        <time>2018-10-13T08:25:37Z</time>
      </trkpt>
      <trkpt lat="42.822526" lon="1.761306">
        <ele>1868.2</ele>
        <time>2018-10-13T08:25:55Z</time>
      </trkpt>
      <trkpt lat="42.822455" lon="1.761294">
        <ele>1872.7</ele>
        <time>2018-10-13T08:26:19Z</time>
      </trkpt>
      <trkpt lat="42.822386" lon="1.761278">
        <ele>1876.3</ele>
        <time>2018-10-13T08:26:40Z</time>
      </trkpt>
      <trkpt lat="42.822301" lon="1.761259">
        <ele>1878.9</ele>
        <time>2018-10-13T08:26:56Z</time>
      </trkpt>
      <trkpt lat="42.822218" lon="1.761274">
        <ele>1883.6</ele>
        <time>2018-10-13T08:27:22Z</time>
      </trkpt>
      <trkpt lat="42.822132" lon="1.761265">
        <ele>1887.3</ele>
        <time>2018-10-13T08:27:44Z</time>
      </trkpt>
      <trkpt lat="42.822060" lon="1.761265">
        <ele>1891.3</ele>
        <time>2018-10-13T08:28:03Z</time>
      </trkpt>
      <trkpt lat="42.821996" lon="1.761308">
        <ele>1895.3</ele>
        <time>2018-10-13T08:28:26Z</time>
      </trkpt>
      <trkpt lat="42.822004" lon="1.761420">
        <ele>1900.1</ele>
        <time>2018-10-13T08:28:50Z</time>
      </trkpt>
      <trkpt lat="42.822053" lon="1.761517">
        <ele>1904.3</ele>
        <time>2018-10-13T08:29:12Z</time>
      </trkpt>
      <trkpt lat="42.821991" lon="1.761530">
        <ele>1909.7</ele>
        <time>2018-10-13T08:30:04Z</time>
      </trkpt>
      <trkpt lat="42.821933" lon="1.761471">
        <ele>1913.8</ele>
        <time>2018-10-13T08:30:26Z</time>
      </trkpt>
      <trkpt lat="42.821844" lon="1.761415">
        <ele>1915.2</ele>
        <time>2018-10-13T08:30:41Z</time>
      </trkpt>
      <trkpt lat="42.821753" lon="1.761374">
        <ele>1917.3</ele>
        <time>2018-10-13T08:30:59Z</time>
      </trkpt>
      <trkpt lat="42.821652" lon="1.761335">
        <ele>1919.9</ele>
        <time>2018-10-13T08:31:16Z</time>
      </trkpt>
      <trkpt lat="42.821546" lon="1.761298">
        <ele>1922.1</ele>
        <time>2018-10-13T08:31:59Z</time>
      </trkpt>
      <trkpt lat="42.821444" lon="1.761312">
        <ele>1924.4</ele>
        <time>2018-10-13T08:32:13Z</time>
      </trkpt>
      <trkpt lat="42.821363" lon="1.761373">
        <ele>1926.5</ele>
        <time>2018-10-13T08:32:24Z</time>
      </trkpt>
      <trkpt lat="42.821296" lon="1.761365">
        <ele>1929.0</ele>
        <time>2018-10-13T08:32:36Z</time>
      </trkpt>
      <trkpt lat="42.821202" lon="1.761401">
        <ele>1931.4</ele>
        <time>2018-10-13T08:32:49Z</time>
      </trkpt>
      <trkpt lat="42.821170" lon="1.761311">
        <ele>1935.5</ele>
        <time>2018-10-13T08:33:08Z</time>
      </trkpt>
      <trkpt lat="42.821109" lon="1.761214">
        <ele>1939.3</ele>
        <time>2018-10-13T08:33:27Z</time>
      </trkpt>
      <trkpt lat="42.821014" lon="1.761206">
        <ele>1944.1</ele>
        <time>2018-10-13T08:33:51Z</time>
      </trkpt>
      <trkpt lat="42.820938" lon="1.761257">
        <ele>1947.2</ele>
        <time>2018-10-13T08:34:08Z</time>
      </trkpt>
      <trkpt lat="42.820884" lon="1.761357">
        <ele>1951.4</ele>
        <time>2018-10-13T08:34:31Z</time>
      </trkpt>
      <trkpt lat="42.820858" lon="1.761479">
        <ele>1954.3</ele>
        <time>2018-10-13T08:34:51Z</time>
      </trkpt>
      <trkpt lat="42.820793" lon="1.761567">
        <ele>1956.7</ele>
        <time>2018-10-13T08:35:07Z</time>
      </trkpt>
      <trkpt lat="42.820749" lon="1.761535">
        <ele>1961.0</ele>
        <time>2018-10-13T08:35:31Z</time>
      </trkpt>
      <trkpt lat="42.820712" lon="1.761430">
        <ele>1964.8</ele>
        <time>2018-10-13T08:35:52Z</time>
      </trkpt>
      <trkpt lat="42.820628" lon="1.761423">
        <ele>1969.0</ele>
        <time>2018-10-13T08:36:13Z</time>
      </trkpt>
      <trkpt lat="42.820553" lon="1.761376">
        <ele>1972.8</ele>
        <time>2018-10-13T08:36:36Z</time>
      </trkpt>
      <trkpt lat="42.820519" lon="1.761415">
        <ele>1977.1</ele>
        <time>2018-10-13T08:36:57Z</time>
      </trkpt>
      <trkpt lat="42.820459" lon="1.761438">
        <ele>1980.2</ele>
        <time>2018-10-13T08:37:16Z</time>
      </trkpt>
      <trkpt lat="42.820356" lon="1.761429">
        <ele>1985.2</ele>
        <time>2018-10-13T08:40:34Z</time>
      </trkpt>
      <trkpt lat="42.820337" lon="1.761431">
        <ele>1985.5</ele>
        <time>2018-10-13T08:44:28Z</time>
      </trkpt>
      <trkpt lat="42.820332" lon="1.761497">
        <ele>1985.8</ele>
        <time>2018-10-13T08:45:33Z</time>
      </trkpt>
      <trkpt lat="42.820342" lon="1.761619">
        <ele>1985.9</ele>
        <time>2018-10-13T08:45:47Z</time>
      </trkpt>
      <trkpt lat="42.820329" lon="1.761745">
        <ele>1988.6</ele>
        <time>2018-10-13T08:45:58Z</time>
      </trkpt>
      <trkpt lat="42.820380" lon="1.761864">
        <ele>1991.1</ele>
        <time>2018-10-13T08:46:12Z</time>
      </trkpt>
      <trkpt lat="42.820389" lon="1.761993">
        <ele>1993.9</ele>
        <time>2018-10-13T08:46:25Z</time>
      </trkpt>
      <trkpt lat="42.820386" lon="1.762126">
        <ele>1995.3</ele>
        <time>2018-10-13T08:46:37Z</time>
      </trkpt>
      <trkpt lat="42.820337" lon="1.762269">
        <ele>1998.0</ele>
        <time>2018-10-13T08:46:52Z</time>
      </trkpt>
      <trkpt lat="42.820326" lon="1.762362">
        <ele>2000.6</ele>
        <time>2018-10-13T08:47:08Z</time>
      </trkpt>
      <trkpt lat="42.820326" lon="1.762475">
        <ele>2005.5</ele>
        <time>2018-10-13T08:47:39Z</time>
      </trkpt>
      <trkpt lat="42.820327" lon="1.762578">
        <ele>2009.6</ele>
        <time>2018-10-13T08:47:59Z</time>
      </trkpt>
      <trkpt lat="42.820362" lon="1.762680">
        <ele>2012.8</ele>
        <time>2018-10-13T08:48:16Z</time>
      </trkpt>
      <trkpt lat="42.820361" lon="1.762764">
        <ele>2016.0</ele>
        <time>2018-10-13T08:48:35Z</time>
      </trkpt>
      <trkpt lat="42.820355" lon="1.762881">
        <ele>2020.2</ele>
        <time>2018-10-13T08:48:55Z</time>
      </trkpt>
      <trkpt lat="42.820348" lon="1.762963">
        <ele>2024.5</ele>
        <time>2018-10-13T08:49:12Z</time>
      </trkpt>
      <trkpt lat="42.820356" lon="1.763082">
        <ele>2028.7</ele>
        <time>2018-10-13T08:49:32Z</time>
      </trkpt>
      <trkpt lat="42.820363" lon="1.763173">
        <ele>2032.5</ele>
        <time>2018-10-13T08:49:53Z</time>
      </trkpt>
      <trkpt lat="42.820427" lon="1.763221">
        <ele>2037.1</ele>
        <time>2018-10-13T08:50:16Z</time>
      </trkpt>
      <trkpt lat="42.820393" lon="1.763319">
        <ele>2042.2</ele>
        <time>2018-10-13T08:50:46Z</time>
      </trkpt>
      <trkpt lat="42.820459" lon="1.763382">
        <ele>2045.4</ele>
        <time>2018-10-13T08:51:07Z</time>
      </trkpt>
      <trkpt lat="42.820526" lon="1.763458">
        <ele>2050.3</ele>
        <time>2018-10-13T08:51:34Z</time>
      </trkpt>
      <trkpt lat="42.820538" lon="1.763600">
        <ele>2058.8</ele>
        <time>2018-10-13T08:52:23Z</time>
      </trkpt>
      <trkpt lat="42.820559" lon="1.763720">
        <ele>2066.5</ele>
        <time>2018-10-13T08:53:07Z</time>
      </trkpt>
      <trkpt lat="42.820567" lon="1.763812">
        <ele>2070.1</ele>
        <time>2018-10-13T08:53:28Z</time>
      </trkpt>
      <trkpt lat="42.820514" lon="1.763900">
        <ele>2074.9</ele>
        <time>2018-10-13T08:53:51Z</time>
      </trkpt>
      <trkpt lat="42.820555" lon="1.764029">
        <ele>2081.6</ele>
        <time>2018-10-13T08:54:31Z</time>
      </trkpt>
      <trkpt lat="42.820539" lon="1.764121">
        <ele>2085.9</ele>
        <time>2018-10-13T08:54:55Z</time>
      </trkpt>
      <trkpt lat="42.820483" lon="1.764194">
        <ele>2088.7</ele>
        <time>2018-10-13T08:55:13Z</time>
      </trkpt>
      <trkpt lat="42.820471" lon="1.764292">
        <ele>2091.8</ele>
        <time>2018-10-13T08:55:30Z</time>
      </trkpt>
      <trkpt lat="42.820456" lon="1.764401">
        <ele>2096.4</ele>
        <time>2018-10-13T08:55:54Z</time>
      </trkpt>
      <trkpt lat="42.820473" lon="1.764506">
        <ele>2099.5</ele>
        <time>2018-10-13T08:56:10Z</time>
      </trkpt>
      <trkpt lat="42.820533" lon="1.764592">
        <ele>2102.1</ele>
        <time>2018-10-13T08:56:26Z</time>
      </trkpt>
      <trkpt lat="42.820561" lon="1.764694">
        <ele>2107.3</ele>
        <time>2018-10-13T08:57:56Z</time>
      </trkpt>
      <trkpt lat="42.820535" lon="1.764800">
        <ele>2109.8</ele>
        <time>2018-10-13T08:58:10Z</time>
      </trkpt>
      <trkpt lat="42.820473" lon="1.764908">
        <ele>2114.1</ele>
        <time>2018-10-13T08:58:26Z</time>
      </trkpt>
      <trkpt lat="42.820433" lon="1.765035">
        <ele>2117.8</ele>
        <time>2018-10-13T08:58:44Z</time>
      </trkpt>
      <trkpt lat="42.820400" lon="1.765140">
        <ele>2121.4</ele>
        <time>2018-10-13T08:59:04Z</time>
      </trkpt>
      <trkpt lat="42.820393" lon="1.765245">
        <ele>2124.9</ele>
        <time>2018-10-13T08:59:24Z</time>
      </trkpt>
      <trkpt lat="42.820385" lon="1.765346">
        <ele>2128.9</ele>
        <time>2018-10-13T08:59:44Z</time>
      </trkpt>
      <trkpt lat="42.820368" lon="1.765453">
        <ele>2132.9</ele>
        <time>2018-10-13T09:00:03Z</time>
      </trkpt>
      <trkpt lat="42.820316" lon="1.765536">
        <ele>2137.9</ele>
        <time>2018-10-13T09:00:27Z</time>
      </trkpt>
      <trkpt lat="42.820340" lon="1.765616">
        <ele>2142.3</ele>
        <time>2018-10-13T09:00:50Z</time>
      </trkpt>
      <trkpt lat="42.820381" lon="1.765716">
        <ele>2144.8</ele>
        <time>2018-10-13T09:01:05Z</time>
      </trkpt>
      <trkpt lat="42.820315" lon="1.765782">
        <ele>2148.2</ele>
        <time>2018-10-13T09:01:21Z</time>
      </trkpt>
      <trkpt lat="42.820269" lon="1.765894">
        <ele>2152.5</ele>
        <time>2018-10-13T09:01:41Z</time>
      </trkpt>
      <trkpt lat="42.820212" lon="1.765974">
        <ele>2157.1</ele>
        <time>2018-10-13T09:02:00Z</time>
      </trkpt>
      <trkpt lat="42.820122" lon="1.766024">
        <ele>2160.8</ele>
        <time>2018-10-13T09:02:18Z</time>
      </trkpt>
      <trkpt lat="42.820054" lon="1.766111">
        <ele>2164.3</ele>
        <time>2018-10-13T09:02:37Z</time>
      </trkpt>
      <trkpt lat="42.820040" lon="1.766170">
        <ele>2168.9</ele>
        <time>2018-10-13T09:03:02Z</time>
      </trkpt>
      <trkpt lat="42.819990" lon="1.766273">
        <ele>2173.2</ele>
        <time>2018-10-13T09:03:30Z</time>
      </trkpt>
      <trkpt lat="42.819971" lon="1.766353">
        <ele>2178.1</ele>
        <time>2018-10-13T09:03:58Z</time>
      </trkpt>
      <trkpt lat="42.820019" lon="1.766416">
        <ele>2182.9</ele>
        <time>2018-10-13T09:04:23Z</time>
      </trkpt>
      <trkpt lat="42.819987" lon="1.766484">
        <ele>2187.1</ele>
        <time>2018-10-13T09:04:48Z</time>
      </trkpt>
      <trkpt lat="42.819943" lon="1.766573">
        <ele>2190.9</ele>
        <time>2018-10-13T09:05:18Z</time>
      </trkpt>
      <trkpt lat="42.819937" lon="1.766623">
        <ele>2194.6</ele>
        <time>2018-10-13T09:05:40Z</time>
      </trkpt>
      <trkpt lat="42.819944" lon="1.766706">
        <ele>2197.8</ele>
        <time>2018-10-13T09:06:03Z</time>
      </trkpt>
      <trkpt lat="42.819924" lon="1.766806">
        <ele>2201.3</ele>
        <time>2018-10-13T09:06:24Z</time>
      </trkpt>
      <trkpt lat="42.819883" lon="1.766866">
        <ele>2205.1</ele>
        <time>2018-10-13T09:06:48Z</time>
      </trkpt>
      <trkpt lat="42.819933" lon="1.766948">
        <ele>2210.1</ele>
        <time>2018-10-13T09:07:15Z</time>
      </trkpt>
      <trkpt lat="42.819981" lon="1.767050">
        <ele>2213.8</ele>
        <time>2018-10-13T09:07:38Z</time>
      </trkpt>
      <trkpt lat="42.819970" lon="1.767160">
        <ele>2217.4</ele>
        <time>2018-10-13T09:08:00Z</time>
      </trkpt>
      <trkpt lat="42.819977" lon="1.767288">
        <ele>2221.0</ele>
        <time>2018-10-13T09:08:21Z</time>
      </trkpt>
      <trkpt lat="42.819899" lon="1.767346">
        <ele>2224.1</ele>
        <time>2018-10-13T09:08:42Z</time>
      </trkpt>
      <trkpt lat="42.819896" lon="1.767448">
        <ele>2226.9</ele>
        <time>2018-10-13T09:09:00Z</time>
      </trkpt>
      <trkpt lat="42.819820" lon="1.767514">
        <ele>2229.9</ele>
        <time>2018-10-13T09:09:21Z</time>
      </trkpt>
      <trkpt lat="42.819752" lon="1.767611">
        <ele>2233.2</ele>
        <time>2018-10-13T09:11:13Z</time>
      </trkpt>
      <trkpt lat="42.819693" lon="1.767719">
        <ele>2236.5</ele>
        <time>2018-10-13T09:11:32Z</time>
      </trkpt>
      <trkpt lat="42.819669" lon="1.767839">
        <ele>2240.2</ele>
        <time>2018-10-13T09:11:50Z</time>
      </trkpt>
      <trkpt lat="42.819635" lon="1.767945">
        <ele>2244.2</ele>
        <time>2018-10-13T09:12:10Z</time>
      </trkpt>
      <trkpt lat="42.819585" lon="1.768056">
        <ele>2247.2</ele>
        <time>2018-10-13T09:12:27Z</time>
      </trkpt>
      <trkpt lat="42.819534" lon="1.768159">
        <ele>2250.2</ele>
        <time>2018-10-13T09:12:43Z</time>
      </trkpt>
      <trkpt lat="42.819522" lon="1.768238">
        <ele>2252.6</ele>
        <time>2018-10-13T09:13:01Z</time>
      </trkpt>
      <trkpt lat="42.819520" lon="1.768345">
        <ele>2256.0</ele>
        <time>2018-10-13T09:13:21Z</time>
      </trkpt>
      <trkpt lat="42.819463" lon="1.768430">
        <ele>2259.0</ele>
        <time>2018-10-13T09:13:38Z</time>
      </trkpt>
      <trkpt lat="42.819482" lon="1.768533">
        <ele>2262.3</ele>
        <time>2018-10-13T09:13:58Z</time>
      </trkpt>
      <trkpt lat="42.819431" lon="1.768588">
        <ele>2264.8</ele>
        <time>2018-10-13T09:14:14Z</time>
      </trkpt>
      <trkpt lat="42.819450" lon="1.768670">
        <ele>2268.1</ele>
        <time>2018-10-13T09:14:33Z</time>
      </trkpt>
      <trkpt lat="42.819425" lon="1.768747">
        <ele>2271.1</ele>
        <time>2018-10-13T09:14:52Z</time>
      </trkpt>
      <trkpt lat="42.819412" lon="1.768853">
        <ele>2274.5</ele>
        <time>2018-10-13T09:15:14Z</time>
      </trkpt>
      <trkpt lat="42.819379" lon="1.768965">
        <ele>2276.8</ele>
        <time>2018-10-13T09:15:31Z</time>
      </trkpt>
      <trkpt lat="42.819324" lon="1.769060">
        <ele>2280.4</ele>
        <time>2018-10-13T09:15:51Z</time>
      </trkpt>
      <trkpt lat="42.819309" lon="1.769178">
        <ele>2282.9</ele>
        <time>2018-10-13T09:16:10Z</time>
      </trkpt>
      <trkpt lat="42.819268" lon="1.769310">
        <ele>2285.7</ele>
        <time>2018-10-13T09:16:27Z</time>
      </trkpt>
      <trkpt lat="42.819220" lon="1.769406">
        <ele>2289.0</ele>
        <time>2018-10-13T09:16:46Z</time>
      </trkpt>
      <trkpt lat="42.819193" lon="1.769522">
        <ele>2291.9</ele>
        <time>2018-10-13T09:17:06Z</time>
      </trkpt>
      <trkpt lat="42.819162" lon="1.769639">
        <ele>2295.3</ele>
        <time>2018-10-13T09:17:28Z</time>
      </trkpt>
      <trkpt lat="42.819175" lon="1.769741">
        <ele>2298.8</ele>
        <time>2018-10-13T09:17:51Z</time>
      </trkpt>
      <trkpt lat="42.819152" lon="1.769855">
        <ele>2302.7</ele>
        <time>2018-10-13T09:18:12Z</time>
      </trkpt>
      <trkpt lat="42.819132" lon="1.769980">
        <ele>2305.8</ele>
        <time>2018-10-13T09:18:32Z</time>
      </trkpt>
      <trkpt lat="42.819177" lon="1.770072">
        <ele>2308.4</ele>
        <time>2018-10-13T09:18:47Z</time>
      </trkpt>
      <trkpt lat="42.819172" lon="1.770182">
        <ele>2310.9</ele>
        <time>2018-10-13T09:19:02Z</time>
      </trkpt>
      <trkpt lat="42.819144" lon="1.770325">
        <ele>2313.4</ele>
        <time>2018-10-13T09:19:42Z</time>
      </trkpt>
      <trkpt lat="42.819129" lon="1.770464">
        <ele>2315.2</ele>
        <time>2018-10-13T09:19:54Z</time>
      </trkpt>
      <trkpt lat="42.819133" lon="1.770596">
        <ele>2317.3</ele>
        <time>2018-10-13T09:20:07Z</time>
      </trkpt>
      <trkpt lat="42.819122" lon="1.770742">
        <ele>2320.0</ele>
        <time>2018-10-13T09:20:23Z</time>
      </trkpt>
      <trkpt lat="42.819152" lon="1.770848">
        <ele>2322.7</ele>
        <time>2018-10-13T09:21:01Z</time>
      </trkpt>
      <trkpt lat="42.819176" lon="1.770985">
        <ele>2325.6</ele>
        <time>2018-10-13T09:21:15Z</time>
      </trkpt>
      <trkpt lat="42.819163" lon="1.771092">
        <ele>2327.9</ele>
        <time>2018-10-13T09:21:29Z</time>
      </trkpt>
      <trkpt lat="42.819145" lon="1.771109">
        <ele>2329.4</ele>
        <time>2018-10-13T09:22:21Z</time>
      </trkpt>
      <trkpt lat="42.819158" lon="1.771171">
        <ele>2337.3</ele>
        <time>2018-10-13T09:42:09Z</time>
      </trkpt>
      <trkpt lat="42.819139" lon="1.771149">
        <ele>2337.6</ele>
        <time>2018-10-13T09:43:37Z</time>
      </trkpt>
      <trkpt lat="42.819158" lon="1.771065">
        <ele>2337.5</ele>
        <time>2018-10-13T09:43:58Z</time>
      </trkpt>
      <trkpt lat="42.819091" lon="1.770866">
        <ele>2334.5</ele>
        <time>2018-10-13T09:45:42Z</time>
      </trkpt>
      <trkpt lat="42.819109" lon="1.770732">
        <ele>2332.6</ele>
        <time>2018-10-13T09:45:54Z</time>
      </trkpt>
      <trkpt lat="42.819128" lon="1.770601">
        <ele>2331.0</ele>
        <time>2018-10-13T09:46:04Z</time>
      </trkpt>
      <trkpt lat="42.819146" lon="1.770478">
        <ele>2328.7</ele>
        <time>2018-10-13T09:46:14Z</time>
      </trkpt>
      <trkpt lat="42.819132" lon="1.770347">
        <ele>2325.3</ele>
        <time>2018-10-13T09:46:26Z</time>
      </trkpt>
      <trkpt lat="42.819165" lon="1.770212">
        <ele>2323.8</ele>
        <time>2018-10-13T09:46:36Z</time>
      </trkpt>
      <trkpt lat="42.819173" lon="1.770086">
        <ele>2321.8</ele>
        <time>2018-10-13T09:46:45Z</time>
      </trkpt>
      <trkpt lat="42.819172" lon="1.769949">
        <ele>2319.8</ele>
        <time>2018-10-13T09:46:55Z</time>
      </trkpt>
      <trkpt lat="42.819164" lon="1.769827">
        <ele>2316.7</ele>
        <time>2018-10-13T09:47:14Z</time>
      </trkpt>
      <trkpt lat="42.819187" lon="1.769727">
        <ele>2313.4</ele>
        <time>2018-10-13T09:47:29Z</time>
      </trkpt>
      <trkpt lat="42.819162" lon="1.769649">
        <ele>2309.1</ele>
        <time>2018-10-13T09:47:46Z</time>
      </trkpt>
      <trkpt lat="42.819200" lon="1.769538">
        <ele>2306.3</ele>
        <time>2018-10-13T09:47:59Z</time>
      </trkpt>
      <trkpt lat="42.819218" lon="1.769425">
        <ele>2303.2</ele>
        <time>2018-10-13T09:48:13Z</time>
      </trkpt>
      <trkpt lat="42.819283" lon="1.769322">
        <ele>2301.0</ele>
        <time>2018-10-13T09:48:24Z</time>
      </trkpt>
      <trkpt lat="42.819313" lon="1.769209">
        <ele>2297.6</ele>
        <time>2018-10-13T09:48:36Z</time>
      </trkpt>
      <trkpt lat="42.819332" lon="1.769089">
        <ele>2295.1</ele>
        <time>2018-10-13T09:48:47Z</time>
      </trkpt>
      <trkpt lat="42.819356" lon="1.768977">
        <ele>2292.2</ele>
        <time>2018-10-13T09:49:00Z</time>
      </trkpt>
      <trkpt lat="42.819415" lon="1.768888">
        <ele>2289.8</ele>
        <time>2018-10-13T09:49:11Z</time>
      </trkpt>
      <trkpt lat="42.819428" lon="1.768799">
        <ele>2287.1</ele>
        <time>2018-10-13T09:49:22Z</time>
      </trkpt>
      <trkpt lat="42.819400" lon="1.768694">
        <ele>2284.3</ele>
        <time>2018-10-13T09:49:33Z</time>
      </trkpt>
      <trkpt lat="42.819437" lon="1.768616">
        <ele>2281.8</ele>
        <time>2018-10-13T09:49:46Z</time>
      </trkpt>
      <trkpt lat="42.819460" lon="1.768531">
        <ele>2277.9</ele>
        <time>2018-10-13T09:50:00Z</time>
      </trkpt>
      <trkpt lat="42.819447" lon="1.768412">
        <ele>2274.6</ele>
        <time>2018-10-13T09:50:11Z</time>
      </trkpt>
      <trkpt lat="42.819508" lon="1.768339">
        <ele>2272.1</ele>
        <time>2018-10-13T09:50:23Z</time>
      </trkpt>
      <trkpt lat="42.819484" lon="1.768236">
        <ele>2269.2</ele>
        <time>2018-10-13T09:50:33Z</time>
      </trkpt>
      <trkpt lat="42.819517" lon="1.768171">
        <ele>2266.5</ele>
        <time>2018-10-13T09:50:45Z</time>
      </trkpt>
      <trkpt lat="42.819557" lon="1.768059">
        <ele>2263.9</ele>
        <time>2018-10-13T09:50:57Z</time>
      </trkpt>
      <trkpt lat="42.819601" lon="1.767949">
        <ele>2260.9</ele>
        <time>2018-10-13T09:51:09Z</time>
      </trkpt>
      <trkpt lat="42.819637" lon="1.767847">
        <ele>2258.1</ele>
        <time>2018-10-13T09:51:20Z</time>
      </trkpt>
      <trkpt lat="42.819660" lon="1.767736">
        <ele>2254.6</ele>
        <time>2018-10-13T09:51:33Z</time>
      </trkpt>
      <trkpt lat="42.819707" lon="1.767622">
        <ele>2251.9</ele>
        <time>2018-10-13T09:51:45Z</time>
      </trkpt>
      <trkpt lat="42.819793" lon="1.767560">
        <ele>2249.0</ele>
        <time>2018-10-13T09:51:56Z</time>
      </trkpt>
      <trkpt lat="42.819867" lon="1.767488">
        <ele>2246.6</ele>
        <time>2018-10-13T09:52:06Z</time>
      </trkpt>
      <trkpt lat="42.819915" lon="1.767411">
        <ele>2242.8</ele>
        <time>2018-10-13T09:52:22Z</time>
      </trkpt>
      <trkpt lat="42.819939" lon="1.767341">
        <ele>2239.7</ele>
        <time>2018-10-13T09:52:35Z</time>
      </trkpt>
      <trkpt lat="42.819995" lon="1.767244">
        <ele>2236.4</ele>
        <time>2018-10-13T09:52:49Z</time>
      </trkpt>
      <trkpt lat="42.819977" lon="1.767111">
        <ele>2232.7</ele>
        <time>2018-10-13T09:53:02Z</time>
      </trkpt>
      <trkpt lat="42.819924" lon="1.767011">
        <ele>2228.9</ele>
        <time>2018-10-13T09:53:16Z</time>
      </trkpt>
      <trkpt lat="42.819909" lon="1.766924">
        <ele>2224.9</ele>
        <time>2018-10-13T09:53:31Z</time>
      </trkpt>
      <trkpt lat="42.819929" lon="1.766839">
        <ele>2221.9</ele>
        <time>2018-10-13T09:53:46Z</time>
      </trkpt>
      <trkpt lat="42.819936" lon="1.766746">
        <ele>2218.2</ele>
        <time>2018-10-13T09:54:02Z</time>
      </trkpt>
      <trkpt lat="42.819939" lon="1.766673">
        <ele>2214.6</ele>
        <time>2018-10-13T09:54:17Z</time>
      </trkpt>
      <trkpt lat="42.819970" lon="1.766579">
        <ele>2211.2</ele>
        <time>2018-10-13T09:54:32Z</time>
      </trkpt>
      <trkpt lat="42.819905" lon="1.766508">
        <ele>2208.4</ele>
        <time>2018-10-13T09:54:46Z</time>
      </trkpt>
      <trkpt lat="42.819891" lon="1.766451">
        <ele>2204.4</ele>
        <time>2018-10-13T09:55:03Z</time>
      </trkpt>
      <trkpt lat="42.819933" lon="1.766373">
        <ele>2200.5</ele>
        <time>2018-10-13T09:55:20Z</time>
      </trkpt>
      <trkpt lat="42.819957" lon="1.766279">
        <ele>2196.4</ele>
        <time>2018-10-13T09:55:33Z</time>
      </trkpt>
      <trkpt lat="42.820020" lon="1.766177">
        <ele>2192.6</ele>
        <time>2018-10-13T09:55:46Z</time>
      </trkpt>
      <trkpt lat="42.820086" lon="1.766111">
        <ele>2187.8</ele>
        <time>2018-10-13T09:56:03Z</time>
      </trkpt>
      <trkpt lat="42.820112" lon="1.766022">
        <ele>2183.9</ele>
        <time>2018-10-13T09:56:18Z</time>
      </trkpt>
      <trkpt lat="42.820177" lon="1.765977">
        <ele>2180.2</ele>
        <time>2018-10-13T09:56:35Z</time>
      </trkpt>
      <trkpt lat="42.820208" lon="1.765908">
        <ele>2176.1</ele>
        <time>2018-10-13T09:56:51Z</time>
      </trkpt>
      <trkpt lat="42.820280" lon="1.765831">
        <ele>2172.8</ele>
        <time>2018-10-13T09:57:05Z</time>
      </trkpt>
      <trkpt lat="42.820329" lon="1.765741">
        <ele>2168.8</ele>
        <time>2018-10-13T09:57:21Z</time>
      </trkpt>
      <trkpt lat="42.820380" lon="1.765687">
        <ele>2165.7</ele>
        <time>2018-10-13T09:57:36Z</time>
      </trkpt>
      <trkpt lat="42.820346" lon="1.765577">
        <ele>2162.7</ele>
        <time>2018-10-13T09:57:51Z</time>
      </trkpt>
      <trkpt lat="42.820336" lon="1.765501">
        <ele>2159.3</ele>
        <time>2018-10-13T09:58:06Z</time>
      </trkpt>
      <trkpt lat="42.820364" lon="1.765449">
        <ele>2155.7</ele>
        <time>2018-10-13T09:58:24Z</time>
      </trkpt>
      <trkpt lat="42.820380" lon="1.765330">
        <ele>2152.7</ele>
        <time>2018-10-13T09:58:37Z</time>
      </trkpt>
      <trkpt lat="42.820410" lon="1.765238">
        <ele>2148.6</ele>
        <time>2018-10-13T09:58:53Z</time>
      </trkpt>
      <trkpt lat="42.820392" lon="1.765135">
        <ele>2145.1</ele>
        <time>2018-10-13T09:59:08Z</time>
      </trkpt>
      <trkpt lat="42.820423" lon="1.765046">
        <ele>2141.6</ele>
        <time>2018-10-13T09:59:22Z</time>
      </trkpt>
      <trkpt lat="42.820462" lon="1.764938">
        <ele>2138.1</ele>
        <time>2018-10-13T09:59:39Z</time>
      </trkpt>
      <trkpt lat="42.820516" lon="1.764833">
        <ele>2135.4</ele>
        <time>2018-10-13T09:59:51Z</time>
      </trkpt>
      <trkpt lat="42.820583" lon="1.764743">
        <ele>2132.4</ele>
        <time>2018-10-13T10:00:04Z</time>
      </trkpt>
      <trkpt lat="42.820562" lon="1.764658">
        <ele>2128.7</ele>
        <time>2018-10-13T10:00:18Z</time>
      </trkpt>
      <trkpt lat="42.820498" lon="1.764574">
        <ele>2124.4</ele>
        <time>2018-10-13T10:00:34Z</time>
      </trkpt>
      <trkpt lat="42.820451" lon="1.764452">
        <ele>2120.9</ele>
        <time>2018-10-13T10:00:47Z</time>
      </trkpt>
      <trkpt lat="42.820465" lon="1.764334">
        <ele>2117.8</ele>
        <time>2018-10-13T10:01:01Z</time>
      </trkpt>
      <trkpt lat="42.820506" lon="1.764227">
        <ele>2114.1</ele>
        <time>2018-10-13T10:01:16Z</time>
      </trkpt>
      <trkpt lat="42.820542" lon="1.764130">
        <ele>2109.7</ele>
        <time>2018-10-13T10:01:36Z</time>
      </trkpt>
      <trkpt lat="42.820565" lon="1.764021">
        <ele>2105.3</ele>
        <time>2018-10-13T10:01:54Z</time>
      </trkpt>
      <trkpt lat="42.820538" lon="1.763943">
        <ele>2100.9</ele>
        <time>2018-10-13T10:02:13Z</time>
      </trkpt>
      <trkpt lat="42.820534" lon="1.763851">
        <ele>2096.4</ele>
        <time>2018-10-13T10:02:34Z</time>
      </trkpt>
      <trkpt lat="42.820543" lon="1.763758">
        <ele>2093.1</ele>
        <time>2018-10-13T10:02:50Z</time>
      </trkpt>
      <trkpt lat="42.820532" lon="1.763733">
        <ele>2089.2</ele>
        <time>2018-10-13T10:03:07Z</time>
      </trkpt>
      <trkpt lat="42.820545" lon="1.763656">
        <ele>2085.1</ele>
        <time>2018-10-13T10:03:24Z</time>
      </trkpt>
      <trkpt lat="42.820512" lon="1.763573">
        <ele>2081.1</ele>
        <time>2018-10-13T10:03:40Z</time>
      </trkpt>
      <trkpt lat="42.820499" lon="1.763485">
        <ele>2076.7</ele>
        <time>2018-10-13T10:04:00Z</time>
      </trkpt>
      <trkpt lat="42.820524" lon="1.763435">
        <ele>2072.9</ele>
        <time>2018-10-13T10:04:30Z</time>
      </trkpt>
      <trkpt lat="42.820452" lon="1.763368">
        <ele>2069.3</ele>
        <time>2018-10-13T10:04:46Z</time>
      </trkpt>
      <trkpt lat="42.820437" lon="1.763292">
        <ele>2063.9</ele>
        <time>2018-10-13T10:05:16Z</time>
      </trkpt>
      <trkpt lat="42.820437" lon="1.763200">
        <ele>2060.5</ele>
        <time>2018-10-13T10:05:32Z</time>
      </trkpt>
      <trkpt lat="42.820360" lon="1.763165">
        <ele>2056.9</ele>
        <time>2018-10-13T10:05:58Z</time>
      </trkpt>
      <trkpt lat="42.820368" lon="1.763091">
        <ele>2054.0</ele>
        <time>2018-10-13T10:06:19Z</time>
      </trkpt>
      <trkpt lat="42.820380" lon="1.763008">
        <ele>2050.5</ele>
        <time>2018-10-13T10:06:34Z</time>
      </trkpt>
      <trkpt lat="42.820350" lon="1.762916">
        <ele>2047.2</ele>
        <time>2018-10-13T10:06:47Z</time>
      </trkpt>
      <trkpt lat="42.820326" lon="1.762811">
        <ele>2043.1</ele>
        <time>2018-10-13T10:07:05Z</time>
      </trkpt>
      <trkpt lat="42.820351" lon="1.762722">
        <ele>2039.7</ele>
        <time>2018-10-13T10:07:21Z</time>
      </trkpt>
      <trkpt lat="42.820375" lon="1.762631">
        <ele>2036.8</ele>
        <time>2018-10-13T10:07:34Z</time>
      </trkpt>
      <trkpt lat="42.820351" lon="1.762532">
        <ele>2033.1</ele>
        <time>2018-10-13T10:07:49Z</time>
      </trkpt>
      <trkpt lat="42.820318" lon="1.762439">
        <ele>2029.8</ele>
        <time>2018-10-13T10:08:04Z</time>
      </trkpt>
      <trkpt lat="42.820337" lon="1.762334">
        <ele>2025.7</ele>
        <time>2018-10-13T10:08:21Z</time>
      </trkpt>
      <trkpt lat="42.820357" lon="1.762222">
        <ele>2022.9</ele>
        <time>2018-10-13T10:08:34Z</time>
      </trkpt>
      <trkpt lat="42.820391" lon="1.762085">
        <ele>2020.2</ele>
        <time>2018-10-13T10:08:45Z</time>
      </trkpt>
      <trkpt lat="42.820381" lon="1.761953">
        <ele>2018.0</ele>
        <time>2018-10-13T10:08:56Z</time>
      </trkpt>
      <trkpt lat="42.820370" lon="1.761818">
        <ele>2016.5</ele>
        <time>2018-10-13T10:09:06Z</time>
      </trkpt>
      <trkpt lat="42.820337" lon="1.761708">
        <ele>2014.9</ele>
        <time>2018-10-13T10:09:15Z</time>
      </trkpt>
      <trkpt lat="42.820348" lon="1.761580">
        <ele>2012.8</ele>
        <time>2018-10-13T10:09:24Z</time>
      </trkpt>
      <trkpt lat="42.820356" lon="1.761453">
        <ele>2011.2</ele>
        <time>2018-10-13T10:09:36Z</time>
      </trkpt>
      <trkpt lat="42.820340" lon="1.761375">
        <ele>2010.5</ele>
        <time>2018-10-13T10:12:30Z</time>
      </trkpt>
      <trkpt lat="42.820292" lon="1.761259">
        <ele>2012.6</ele>
        <time>2018-10-13T10:12:43Z</time>
      </trkpt>
      <trkpt lat="42.820249" lon="1.761153">
        <ele>2011.9</ele>
        <time>2018-10-13T10:12:53Z</time>
      </trkpt>
      <trkpt lat="42.820230" lon="1.761039">
        <ele>2011.7</ele>
        <time>2018-10-13T10:13:08Z</time>
      </trkpt>
      <trkpt lat="42.820247" lon="1.760933">
        <ele>2012.8</ele>
        <time>2018-10-13T10:13:22Z</time>
      </trkpt>
      <trkpt lat="42.820194" lon="1.760828">
        <ele>2013.3</ele>
        <time>2018-10-13T10:13:35Z</time>
      </trkpt>
      <trkpt lat="42.820116" lon="1.760753">
        <ele>2013.0</ele>
        <time>2018-10-13T10:13:48Z</time>
      </trkpt>
      <trkpt lat="42.820107" lon="1.760652">
        <ele>2017.2</ele>
        <time>2018-10-13T10:14:14Z</time>
      </trkpt>
      <trkpt lat="42.820031" lon="1.760576">
        <ele>2018.7</ele>
        <time>2018-10-13T10:14:33Z</time>
      </trkpt>
      <trkpt lat="42.819959" lon="1.760529">
        <ele>2018.0</ele>
        <time>2018-10-13T10:14:53Z</time>
      </trkpt>
      <trkpt lat="42.819937" lon="1.760419">
        <ele>2020.2</ele>
        <time>2018-10-13T10:15:09Z</time>
      </trkpt>
      <trkpt lat="42.819965" lon="1.760316">
        <ele>2024.9</ele>
        <time>2018-10-13T10:15:30Z</time>
      </trkpt>
      <trkpt lat="42.819990" lon="1.760233">
        <ele>2030.3</ele>
        <time>2018-10-13T10:15:54Z</time>
      </trkpt>
      <trkpt lat="42.820029" lon="1.760205">
        <ele>2037.2</ele>
        <time>2018-10-13T10:17:09Z</time>
      </trkpt>
      <trkpt lat="42.819999" lon="1.760074">
        <ele>2039.2</ele>
        <time>2018-10-13T10:18:05Z</time>
      </trkpt>
      <trkpt lat="42.819977" lon="1.760007">
        <ele>2042.8</ele>
        <time>2018-10-13T10:18:24Z</time>
      </trkpt>
      <trkpt lat="42.819937" lon="1.759921">
        <ele>2046.5</ele>
        <time>2018-10-13T10:18:43Z</time>
      </trkpt>
      <trkpt lat="42.819881" lon="1.759841">
        <ele>2049.9</ele>
        <time>2018-10-13T10:19:02Z</time>
      </trkpt>
      <trkpt lat="42.819847" lon="1.759760">
        <ele>2054.0</ele>
        <time>2018-10-13T10:19:25Z</time>
      </trkpt>
      <trkpt lat="42.819802" lon="1.759688">
        <ele>2057.1</ele>
        <time>2018-10-13T10:19:45Z</time>
      </trkpt>
      <trkpt lat="42.819764" lon="1.759608">
        <ele>2061.0</ele>
        <time>2018-10-13T10:20:57Z</time>
      </trkpt>
      <trkpt lat="42.819744" lon="1.759515">
        <ele>2064.0</ele>
        <time>2018-10-13T10:21:18Z</time>
      </trkpt>
      <trkpt lat="42.819720" lon="1.759417">
        <ele>2067.8</ele>
        <time>2018-10-13T10:21:36Z</time>
      </trkpt>
      <trkpt lat="42.819778" lon="1.759330">
        <ele>2072.6</ele>
        <time>2018-10-13T10:22:10Z</time>
      </trkpt>
      <trkpt lat="42.819767" lon="1.759220">
        <ele>2077.5</ele>
        <time>2018-10-13T10:22:39Z</time>
      </trkpt>
      <trkpt lat="42.819760" lon="1.759187">
        <ele>2080.8</ele>
        <time>2018-10-13T10:22:59Z</time>
      </trkpt>
      <trkpt lat="42.819755" lon="1.759079">
        <ele>2084.8</ele>
        <time>2018-10-13T10:23:19Z</time>
      </trkpt>
      <trkpt lat="42.819764" lon="1.759008">
        <ele>2089.2</ele>
        <time>2018-10-13T10:23:45Z</time>
      </trkpt>
      <trkpt lat="42.819790" lon="1.758954">
        <ele>2094.0</ele>
        <time>2018-10-13T10:24:30Z</time>
      </trkpt>
      <trkpt lat="42.819821" lon="1.758864">
        <ele>2097.5</ele>
        <time>2018-10-13T10:24:52Z</time>
      </trkpt>
      <trkpt lat="42.819829" lon="1.758765">
        <ele>2098.8</ele>
        <time>2018-10-13T10:25:13Z</time>
      </trkpt>
      <trkpt lat="42.819839" lon="1.758772">
        <ele>2103.6</ele>
        <time>2018-10-13T10:27:06Z</time>
      </trkpt>
      <trkpt lat="42.819780" lon="1.758720">
        <ele>2105.3</ele>
        <time>2018-10-13T10:28:18Z</time>
      </trkpt>
      <trkpt lat="42.819748" lon="1.758639">
        <ele>2109.7</ele>
        <time>2018-10-13T10:28:39Z</time>
      </trkpt>
      <trkpt lat="42.819739" lon="1.758528">
        <ele>2113.1</ele>
        <time>2018-10-13T10:28:55Z</time>
      </trkpt>
      <trkpt lat="42.819719" lon="1.758424">
        <ele>2115.4</ele>
        <time>2018-10-13T10:29:17Z</time>
      </trkpt>
      <trkpt lat="42.819671" lon="1.758333">
        <ele>2116.8</ele>
        <time>2018-10-13T10:29:29Z</time>
      </trkpt>
      <trkpt lat="42.819668" lon="1.758233">
        <ele>2120.3</ele>
        <time>2018-10-13T10:29:51Z</time>
      </trkpt>
      <trkpt lat="42.819654" lon="1.758104">
        <ele>2123.7</ele>
        <time>2018-10-13T10:30:12Z</time>
      </trkpt>
      <trkpt lat="42.819631" lon="1.757972">
        <ele>2126.3</ele>
        <time>2018-10-13T10:30:29Z</time>
      </trkpt>
      <trkpt lat="42.819626" lon="1.757833">
        <ele>2129.5</ele>
        <time>2018-10-13T10:30:47Z</time>
      </trkpt>
      <trkpt lat="42.819608" lon="1.757729">
        <ele>2133.0</ele>
        <time>2018-10-13T10:31:04Z</time>
      </trkpt>
      <trkpt lat="42.819581" lon="1.757619">
        <ele>2136.3</ele>
        <time>2018-10-13T10:31:26Z</time>
      </trkpt>
      <trkpt lat="42.819555" lon="1.757549">
        <ele>2138.9</ele>
        <time>2018-10-13T10:31:44Z</time>
      </trkpt>
      <trkpt lat="42.819512" lon="1.757454">
        <ele>2141.8</ele>
        <time>2018-10-13T10:32:02Z</time>
      </trkpt>
      <trkpt lat="42.819460" lon="1.757350">
        <ele>2145.1</ele>
        <time>2018-10-13T10:32:19Z</time>
      </trkpt>
      <trkpt lat="42.819419" lon="1.757261">
        <ele>2148.5</ele>
        <time>2018-10-13T10:32:37Z</time>
      </trkpt>
      <trkpt lat="42.819386" lon="1.757154">
        <ele>2151.3</ele>
        <time>2018-10-13T10:32:56Z</time>
      </trkpt>
      <trkpt lat="42.819345" lon="1.757068">
        <ele>2153.9</ele>
        <time>2018-10-13T10:33:13Z</time>
      </trkpt>
      <trkpt lat="42.819345" lon="1.756928">
        <ele>2156.9</ele>
        <time>2018-10-13T10:33:33Z</time>
      </trkpt>
      <trkpt lat="42.819345" lon="1.756817">
        <ele>2158.9</ele>
        <time>2018-10-13T10:33:50Z</time>
      </trkpt>
      <trkpt lat="42.819352" lon="1.756697">
        <ele>2160.3</ele>
        <time>2018-10-13T10:34:10Z</time>
      </trkpt>
      <trkpt lat="42.819370" lon="1.756564">
        <ele>2161.9</ele>
        <time>2018-10-13T10:34:21Z</time>
      </trkpt>
      <trkpt lat="42.819378" lon="1.756443">
        <ele>2164.1</ele>
        <time>2018-10-13T10:34:35Z</time>
      </trkpt>
      <trkpt lat="42.819398" lon="1.756380">
        <ele>2165.8</ele>
        <time>2018-10-13T10:35:11Z</time>
      </trkpt>
      <trkpt lat="42.819383" lon="1.756399">
        <ele>2168.6</ele>
        <time>2018-10-13T11:40:01Z</time>
      </trkpt>
      <trkpt lat="42.819379" lon="1.756315">
        <ele>2169.2</ele>
        <time>2018-10-13T11:41:16Z</time>
      </trkpt>
      <trkpt lat="42.819381" lon="1.756169">
        <ele>2168.6</ele>
        <time>2018-10-13T11:41:29Z</time>
      </trkpt>
      <trkpt lat="42.819433" lon="1.756060">
        <ele>2168.6</ele>
        <time>2018-10-13T11:41:40Z</time>
      </trkpt>
      <trkpt lat="42.819482" lon="1.755959">
        <ele>2167.8</ele>
        <time>2018-10-13T11:41:49Z</time>
      </trkpt>
      <trkpt lat="42.819521" lon="1.755836">
        <ele>2167.6</ele>
        <time>2018-10-13T11:42:03Z</time>
      </trkpt>
      <trkpt lat="42.819572" lon="1.755712">
        <ele>2168.7</ele>
        <time>2018-10-13T11:42:15Z</time>
      </trkpt>
      <trkpt lat="42.819577" lon="1.755586">
        <ele>2169.1</ele>
        <time>2018-10-13T11:42:27Z</time>
      </trkpt>
      <trkpt lat="42.819621" lon="1.755463">
        <ele>2168.3</ele>
        <time>2018-10-13T11:42:36Z</time>
      </trkpt>
      <trkpt lat="42.819647" lon="1.755327">
        <ele>2168.0</ele>
        <time>2018-10-13T11:42:45Z</time>
      </trkpt>
      <trkpt lat="42.819678" lon="1.755200">
        <ele>2167.6</ele>
        <time>2018-10-13T11:42:53Z</time>
      </trkpt>
      <trkpt lat="42.819721" lon="1.755082">
        <ele>2167.2</ele>
        <time>2018-10-13T11:43:01Z</time>
      </trkpt>
      <trkpt lat="42.819760" lon="1.754963">
        <ele>2167.0</ele>
        <time>2018-10-13T11:43:10Z</time>
      </trkpt>
      <trkpt lat="42.819791" lon="1.754850">
        <ele>2168.4</ele>
        <time>2018-10-13T11:43:21Z</time>
      </trkpt>
      <trkpt lat="42.819837" lon="1.754741">
        <ele>2172.3</ele>
        <time>2018-10-13T11:44:37Z</time>
      </trkpt>
      <trkpt lat="42.819830" lon="1.754731">
        <ele>2171.7</ele>
        <time>2018-10-13T11:47:43Z</time>
      </trkpt>
      <trkpt lat="42.819887" lon="1.754654">
        <ele>2171.3</ele>
        <time>2018-10-13T11:48:14Z</time>
      </trkpt>
      <trkpt lat="42.819976" lon="1.754640">
        <ele>2170.7</ele>
        <time>2018-10-13T11:48:32Z</time>
      </trkpt>
      <trkpt lat="42.820083" lon="1.754637">
        <ele>2170.3</ele>
        <time>2018-10-13T11:48:44Z</time>
      </trkpt>
      <trkpt lat="42.820184" lon="1.754609">
        <ele>2169.6</ele>
        <time>2018-10-13T11:48:55Z</time>
      </trkpt>
      <trkpt lat="42.820263" lon="1.754575">
        <ele>2165.8</ele>
        <time>2018-10-13T11:49:13Z</time>
      </trkpt>
      <trkpt lat="42.820327" lon="1.754473">
        <ele>2161.8</ele>
        <time>2018-10-13T11:49:27Z</time>
      </trkpt>
      <trkpt lat="42.820421" lon="1.754455">
        <ele>2159.8</ele>
        <time>2018-10-13T11:49:39Z</time>
      </trkpt>
      <trkpt lat="42.820509" lon="1.754377">
        <ele>2156.2</ele>
        <time>2018-10-13T11:49:51Z</time>
      </trkpt>
      <trkpt lat="42.820603" lon="1.754318">
        <ele>2152.6</ele>
        <time>2018-10-13T11:50:03Z</time>
      </trkpt>
      <trkpt lat="42.820694" lon="1.754326">
        <ele>2149.1</ele>
        <time>2018-10-13T11:50:15Z</time>
      </trkpt>
      <trkpt lat="42.820760" lon="1.754270">
        <ele>2144.9</ele>
        <time>2018-10-13T11:50:29Z</time>
      </trkpt>
      <trkpt lat="42.820844" lon="1.754234">
        <ele>2140.8</ele>
        <time>2018-10-13T11:50:43Z</time>
      </trkpt>
      <trkpt lat="42.820910" lon="1.754191">
        <ele>2137.2</ele>
        <time>2018-10-13T11:51:16Z</time>
      </trkpt>
      <trkpt lat="42.820997" lon="1.754171">
        <ele>2134.6</ele>
        <time>2018-10-13T11:51:30Z</time>
      </trkpt>
      <trkpt lat="42.821050" lon="1.754104">
        <ele>2131.5</ele>
        <time>2018-10-13T11:51:44Z</time>
      </trkpt>
      <trkpt lat="42.821088" lon="1.754010">
        <ele>2128.7</ele>
        <time>2018-10-13T11:51:57Z</time>
      </trkpt>
      <trkpt lat="42.821165" lon="1.753940">
        <ele>2125.4</ele>
        <time>2018-10-13T11:52:10Z</time>
      </trkpt>
      <trkpt lat="42.821166" lon="1.753827">
        <ele>2121.9</ele>
        <time>2018-10-13T11:52:24Z</time>
      </trkpt>
      <trkpt lat="42.821244" lon="1.753754">
        <ele>2119.1</ele>
        <time>2018-10-13T11:52:37Z</time>
      </trkpt>
      <trkpt lat="42.821323" lon="1.753694">
        <ele>2116.6</ele>
        <time>2018-10-13T11:52:49Z</time>
      </trkpt>
      <trkpt lat="42.821314" lon="1.753631">
        <ele>2113.4</ele>
        <time>2018-10-13T11:53:06Z</time>
      </trkpt>
      <trkpt lat="42.821382" lon="1.753540">
        <ele>2109.8</ele>
        <time>2018-10-13T11:53:33Z</time>
      </trkpt>
      <trkpt lat="42.821439" lon="1.753455">
        <ele>2105.8</ele>
        <time>2018-10-13T11:53:50Z</time>
      </trkpt>
      <trkpt lat="42.821516" lon="1.753379">
        <ele>2102.7</ele>
        <time>2018-10-13T11:54:03Z</time>
      </trkpt>
      <trkpt lat="42.821563" lon="1.753272">
        <ele>2098.8</ele>
        <time>2018-10-13T11:54:18Z</time>
      </trkpt>
      <trkpt lat="42.821608" lon="1.753166">
        <ele>2094.4</ele>
        <time>2018-10-13T11:54:33Z</time>
      </trkpt>
      <trkpt lat="42.821675" lon="1.753090">
        <ele>2090.8</ele>
        <time>2018-10-13T11:54:48Z</time>
      </trkpt>
      <trkpt lat="42.821691" lon="1.753013">
        <ele>2087.9</ele>
        <time>2018-10-13T11:55:16Z</time>
      </trkpt>
      <trkpt lat="42.821739" lon="1.752932">
        <ele>2083.8</ele>
        <time>2018-10-13T11:55:32Z</time>
      </trkpt>
      <trkpt lat="42.821812" lon="1.752843">
        <ele>2080.4</ele>
        <time>2018-10-13T11:55:47Z</time>
      </trkpt>
      <trkpt lat="42.821899" lon="1.752794">
        <ele>2076.5</ele>
        <time>2018-10-13T11:56:02Z</time>
      </trkpt>
      <trkpt lat="42.821956" lon="1.752698">
        <ele>2072.8</ele>
        <time>2018-10-13T11:56:16Z</time>
      </trkpt>
      <trkpt lat="42.822002" lon="1.752598">
        <ele>2068.8</ele>
        <time>2018-10-13T11:56:32Z</time>
      </trkpt>
      <trkpt lat="42.822094" lon="1.752554">
        <ele>2065.8</ele>
        <time>2018-10-13T11:56:45Z</time>
      </trkpt>
      <trkpt lat="42.822178" lon="1.752505">
        <ele>2064.0</ele>
        <time>2018-10-13T11:57:04Z</time>
      </trkpt>
      <trkpt lat="42.822215" lon="1.752422">
        <ele>2061.3</ele>
        <time>2018-10-13T11:57:18Z</time>
      </trkpt>
      <trkpt lat="42.822291" lon="1.752394">
        <ele>2057.6</ele>
        <time>2018-10-13T11:57:36Z</time>
      </trkpt>
      <trkpt lat="42.822354" lon="1.752317">
        <ele>2053.7</ele>
        <time>2018-10-13T11:57:55Z</time>
      </trkpt>
      <trkpt lat="42.822405" lon="1.752243">
        <ele>2049.6</ele>
        <time>2018-10-13T11:58:19Z</time>
      </trkpt>
      <trkpt lat="42.822394" lon="1.752135">
        <ele>2047.1</ele>
        <time>2018-10-13T11:59:14Z</time>
      </trkpt>
      <trkpt lat="42.822470" lon="1.752068">
        <ele>2044.9</ele>
        <time>2018-10-13T11:59:28Z</time>
      </trkpt>
      <trkpt lat="42.822541" lon="1.751982">
        <ele>2040.9</ele>
        <time>2018-10-13T11:59:55Z</time>
      </trkpt>
      <trkpt lat="42.822585" lon="1.751888">
        <ele>2038.7</ele>
        <time>2018-10-13T12:00:09Z</time>
      </trkpt>
      <trkpt lat="42.822658" lon="1.751773">
        <ele>2033.5</ele>
        <time>2018-10-13T12:10:43Z</time>
      </trkpt>
      <trkpt lat="42.822762" lon="1.751757">
        <ele>2033.7</ele>
        <time>2018-10-13T12:10:55Z</time>
      </trkpt>
      <trkpt lat="42.822838" lon="1.751730">
        <ele>2032.5</ele>
        <time>2018-10-13T12:11:18Z</time>
      </trkpt>
      <trkpt lat="42.822899" lon="1.751760">
        <ele>2027.0</ele>
        <time>2018-10-13T12:11:40Z</time>
      </trkpt>
      <trkpt lat="42.822941" lon="1.751836">
        <ele>2022.8</ele>
        <time>2018-10-13T12:12:07Z</time>
      </trkpt>
      <trkpt lat="42.822970" lon="1.751921">
        <ele>2018.9</ele>
        <time>2018-10-13T12:12:32Z</time>
      </trkpt>
      <trkpt lat="42.822982" lon="1.752042">
        <ele>2014.5</ele>
        <time>2018-10-13T12:12:50Z</time>
      </trkpt>
      <trkpt lat="42.823054" lon="1.752022">
        <ele>2010.7</ele>
        <time>2018-10-13T12:13:06Z</time>
      </trkpt>
      <trkpt lat="42.823145" lon="1.752005">
        <ele>2006.9</ele>
        <time>2018-10-13T12:13:29Z</time>
      </trkpt>
      <trkpt lat="42.823204" lon="1.752045">
        <ele>2004.1</ele>
        <time>2018-10-13T12:13:52Z</time>
      </trkpt>
      <trkpt lat="42.823227" lon="1.752159">
        <ele>2003.0</ele>
        <time>2018-10-13T12:14:06Z</time>
      </trkpt>
      <trkpt lat="42.823250" lon="1.752255">
        <ele>2000.7</ele>
        <time>2018-10-13T12:14:21Z</time>
      </trkpt>
      <trkpt lat="42.823303" lon="1.752346">
        <ele>1995.8</ele>
        <time>2018-10-13T12:14:41Z</time>
      </trkpt>
      <trkpt lat="42.823390" lon="1.752357">
        <ele>1991.3</ele>
        <time>2018-10-13T12:15:02Z</time>
      </trkpt>
      <trkpt lat="42.823475" lon="1.752356">
        <ele>1988.2</ele>
        <time>2018-10-13T12:15:16Z</time>
      </trkpt>
      <trkpt lat="42.823566" lon="1.752360">
        <ele>1984.8</ele>
        <time>2018-10-13T12:15:29Z</time>
      </trkpt>
      <trkpt lat="42.823649" lon="1.752377">
        <ele>1979.4</ele>
        <time>2018-10-13T12:15:50Z</time>
      </trkpt>
      <trkpt lat="42.823708" lon="1.752462">
        <ele>1975.4</ele>
        <time>2018-10-13T12:16:07Z</time>
      </trkpt>
      <trkpt lat="42.823809" lon="1.752457">
        <ele>1972.9</ele>
        <time>2018-10-13T12:16:21Z</time>
      </trkpt>
      <trkpt lat="42.823891" lon="1.752508">
        <ele>1970.4</ele>
        <time>2018-10-13T12:16:36Z</time>
      </trkpt>
      <trkpt lat="42.823966" lon="1.752494">
        <ele>1966.8</ele>
        <time>2018-10-13T12:16:58Z</time>
      </trkpt>
      <trkpt lat="42.824023" lon="1.752550">
        <ele>1962.1</ele>
        <time>2018-10-13T12:17:19Z</time>
      </trkpt>
      <trkpt lat="42.824094" lon="1.752556">
        <ele>1957.6</ele>
        <time>2018-10-13T12:17:40Z</time>
      </trkpt>
      <trkpt lat="42.824137" lon="1.752624">
        <ele>1953.0</ele>
        <time>2018-10-13T12:18:04Z</time>
      </trkpt>
      <trkpt lat="42.824176" lon="1.752710">
        <ele>1948.8</ele>
        <time>2018-10-13T12:18:24Z</time>
      </trkpt>
      <trkpt lat="42.824206" lon="1.752798">
        <ele>1944.2</ele>
        <time>2018-10-13T12:18:40Z</time>
      </trkpt>
      <trkpt lat="42.824233" lon="1.752875">
        <ele>1939.2</ele>
        <time>2018-10-13T12:19:00Z</time>
      </trkpt>
      <trkpt lat="42.824258" lon="1.752950">
        <ele>1936.2</ele>
        <time>2018-10-13T12:19:13Z</time>
      </trkpt>
      <trkpt lat="42.824267" lon="1.753058">
        <ele>1932.5</ele>
        <time>2018-10-13T12:19:27Z</time>
      </trkpt>
      <trkpt lat="42.824320" lon="1.753171">
        <ele>1929.2</ele>
        <time>2018-10-13T12:19:41Z</time>
      </trkpt>
      <trkpt lat="42.824402" lon="1.753238">
        <ele>1927.3</ele>
        <time>2018-10-13T12:19:51Z</time>
      </trkpt>
      <trkpt lat="42.824486" lon="1.753304">
        <ele>1925.8</ele>
        <time>2018-10-13T12:20:01Z</time>
      </trkpt>
      <trkpt lat="42.824573" lon="1.753360">
        <ele>1924.1</ele>
        <time>2018-10-13T12:20:12Z</time>
      </trkpt>
      <trkpt lat="42.824642" lon="1.753453">
        <ele>1922.1</ele>
        <time>2018-10-13T12:20:23Z</time>
      </trkpt>
      <trkpt lat="42.824723" lon="1.753467">
        <ele>1919.8</ele>
        <time>2018-10-13T12:20:35Z</time>
      </trkpt>
      <trkpt lat="42.824816" lon="1.753411">
        <ele>1918.0</ele>
        <time>2018-10-13T12:20:47Z</time>
      </trkpt>
      <trkpt lat="42.824897" lon="1.753386">
        <ele>1916.4</ele>
        <time>2018-10-13T12:20:59Z</time>
      </trkpt>
      <trkpt lat="42.824991" lon="1.753415">
        <ele>1914.4</ele>
        <time>2018-10-13T12:21:13Z</time>
      </trkpt>
      <trkpt lat="42.825090" lon="1.753365">
        <ele>1914.9</ele>
        <time>2018-10-13T12:21:26Z</time>
      </trkpt>
      <trkpt lat="42.825167" lon="1.753327">
        <ele>1914.8</ele>
        <time>2018-10-13T12:21:37Z</time>
      </trkpt>
      <trkpt lat="42.825259" lon="1.753340">
        <ele>1915.0</ele>
        <time>2018-10-13T12:21:48Z</time>
      </trkpt>
      <trkpt lat="42.825348" lon="1.753390">
        <ele>1914.4</ele>
        <time>2018-10-13T12:21:59Z</time>
      </trkpt>
      <trkpt lat="42.825393" lon="1.753499">
        <ele>1913.1</ele>
        <time>2018-10-13T12:22:10Z</time>
      </trkpt>
      <trkpt lat="42.825478" lon="1.753547">
        <ele>1910.2</ele>
        <time>2018-10-13T12:22:28Z</time>
      </trkpt>
      <trkpt lat="42.825547" lon="1.753625">
        <ele>1907.9</ele>
        <time>2018-10-13T12:22:42Z</time>
      </trkpt>
      <trkpt lat="42.825611" lon="1.753694">
        <ele>1905.2</ele>
        <time>2018-10-13T12:22:53Z</time>
      </trkpt>
      <trkpt lat="42.825671" lon="1.753754">
        <ele>1901.9</ele>
        <time>2018-10-13T12:23:07Z</time>
      </trkpt>
      <trkpt lat="42.825759" lon="1.753774">
        <ele>1898.9</ele>
        <time>2018-10-13T12:23:21Z</time>
      </trkpt>
      <trkpt lat="42.825831" lon="1.753840">
        <ele>1894.0</ele>
        <time>2018-10-13T12:27:53Z</time>
      </trkpt>
      <trkpt lat="42.825901" lon="1.753794">
        <ele>1893.3</ele>
        <time>2018-10-13T12:28:51Z</time>
      </trkpt>
      <trkpt lat="42.825999" lon="1.753741">
        <ele>1892.4</ele>
        <time>2018-10-13T12:29:04Z</time>
      </trkpt>
      <trkpt lat="42.826080" lon="1.753682">
        <ele>1891.6</ele>
        <time>2018-10-13T12:29:13Z</time>
      </trkpt>
      <trkpt lat="42.826154" lon="1.753612">
        <ele>1889.8</ele>
        <time>2018-10-13T12:29:23Z</time>
      </trkpt>
      <trkpt lat="42.826250" lon="1.753636">
        <ele>1887.7</ele>
        <time>2018-10-13T12:29:36Z</time>
      </trkpt>
      <trkpt lat="42.826341" lon="1.753644">
        <ele>1886.4</ele>
        <time>2018-10-13T12:29:45Z</time>
      </trkpt>
      <trkpt lat="42.826440" lon="1.753660">
        <ele>1884.4</ele>
        <time>2018-10-13T12:29:54Z</time>
      </trkpt>
      <trkpt lat="42.826537" lon="1.753643">
        <ele>1882.7</ele>
        <time>2018-10-13T12:30:05Z</time>
      </trkpt>
      <trkpt lat="42.826631" lon="1.753653">
        <ele>1881.9</ele>
        <time>2018-10-13T12:30:15Z</time>
      </trkpt>
      <trkpt lat="42.826730" lon="1.753643">
        <ele>1880.9</ele>
        <time>2018-10-13T12:30:24Z</time>
      </trkpt>
      <trkpt lat="42.826810" lon="1.753610">
        <ele>1880.3</ele>
        <time>2018-10-13T12:30:33Z</time>
      </trkpt>
      <trkpt lat="42.826896" lon="1.753572">
        <ele>1880.4</ele>
        <time>2018-10-13T12:30:42Z</time>
      </trkpt>
      <trkpt lat="42.826982" lon="1.753599">
        <ele>1880.2</ele>
        <time>2018-10-13T12:30:51Z</time>
      </trkpt>
      <trkpt lat="42.827046" lon="1.753668">
        <ele>1879.6</ele>
        <time>2018-10-13T12:31:01Z</time>
      </trkpt>
      <trkpt lat="42.827130" lon="1.753738">
        <ele>1877.7</ele>
        <time>2018-10-13T12:31:11Z</time>
      </trkpt>
      <trkpt lat="42.827231" lon="1.753754">
        <ele>1876.8</ele>
        <time>2018-10-13T12:31:20Z</time>
      </trkpt>
      <trkpt lat="42.827328" lon="1.753772">
        <ele>1876.7</ele>
        <time>2018-10-13T12:31:31Z</time>
      </trkpt>
      <trkpt lat="42.827424" lon="1.753783">
        <ele>1875.4</ele>
        <time>2018-10-13T12:31:39Z</time>
      </trkpt>
      <trkpt lat="42.827513" lon="1.753777">
        <ele>1874.5</ele>
        <time>2018-10-13T12:31:47Z</time>
      </trkpt>
      <trkpt lat="42.827618" lon="1.753811">
        <ele>1873.4</ele>
        <time>2018-10-13T12:31:55Z</time>
      </trkpt>
      <trkpt lat="42.827711" lon="1.753836">
        <ele>1873.1</ele>
        <time>2018-10-13T12:32:03Z</time>
      </trkpt>
      <trkpt lat="42.827808" lon="1.753870">
        <ele>1872.9</ele>
        <time>2018-10-13T12:32:11Z</time>
      </trkpt>
      <trkpt lat="42.827896" lon="1.753923">
        <ele>1872.8</ele>
        <time>2018-10-13T12:32:19Z</time>
      </trkpt>
      <trkpt lat="42.827958" lon="1.754004">
        <ele>1874.1</ele>
        <time>2018-10-13T12:32:41Z</time>
      </trkpt>
      <trkpt lat="42.828045" lon="1.753999">
        <ele>1873.6</ele>
        <time>2018-10-13T12:33:13Z</time>
      </trkpt>
      <trkpt lat="42.828144" lon="1.754006">
        <ele>1872.7</ele>
        <time>2018-10-13T12:33:21Z</time>
      </trkpt>
      <trkpt lat="42.828245" lon="1.754026">
        <ele>1871.9</ele>
        <time>2018-10-13T12:33:30Z</time>
      </trkpt>
      <trkpt lat="42.828325" lon="1.753977">
        <ele>1870.8</ele>
        <time>2018-10-13T12:33:40Z</time>
      </trkpt>
      <trkpt lat="42.828406" lon="1.753949">
        <ele>1869.9</ele>
        <time>2018-10-13T12:33:49Z</time>
      </trkpt>
      <trkpt lat="42.828476" lon="1.753863">
        <ele>1868.5</ele>
        <time>2018-10-13T12:34:02Z</time>
      </trkpt>
      <trkpt lat="42.828563" lon="1.753788">
        <ele>1867.9</ele>
        <time>2018-10-13T12:34:11Z</time>
      </trkpt>
      <trkpt lat="42.828635" lon="1.753716">
        <ele>1867.5</ele>
        <time>2018-10-13T12:34:19Z</time>
      </trkpt>
      <trkpt lat="42.828693" lon="1.753606">
        <ele>1866.7</ele>
        <time>2018-10-13T12:34:29Z</time>
      </trkpt>
      <trkpt lat="42.828731" lon="1.753493">
        <ele>1866.0</ele>
        <time>2018-10-13T12:34:38Z</time>
      </trkpt>
      <trkpt lat="42.828776" lon="1.753382">
        <ele>1865.4</ele>
        <time>2018-10-13T12:34:47Z</time>
      </trkpt>
      <trkpt lat="42.828808" lon="1.753247">
        <ele>1865.1</ele>
        <time>2018-10-13T12:34:56Z</time>
      </trkpt>
      <trkpt lat="42.828809" lon="1.753118">
        <ele>1864.8</ele>
        <time>2018-10-13T12:35:05Z</time>
      </trkpt>
      <trkpt lat="42.828834" lon="1.753004">
        <ele>1864.4</ele>
        <time>2018-10-13T12:35:14Z</time>
      </trkpt>
      <trkpt lat="42.828884" lon="1.752897">
        <ele>1863.1</ele>
        <time>2018-10-13T12:35:25Z</time>
      </trkpt>
      <trkpt lat="42.828902" lon="1.752775">
        <ele>1861.7</ele>
        <time>2018-10-13T12:35:34Z</time>
      </trkpt>
      <trkpt lat="42.828881" lon="1.752644">
        <ele>1860.8</ele>
        <time>2018-10-13T12:35:43Z</time>
      </trkpt>
      <trkpt lat="42.828887" lon="1.752511">
        <ele>1859.9</ele>
        <time>2018-10-13T12:35:52Z</time>
      </trkpt>
      <trkpt lat="42.828927" lon="1.752397">
        <ele>1859.1</ele>
        <time>2018-10-13T12:36:01Z</time>
      </trkpt>
      <trkpt lat="42.828920" lon="1.752283">
        <ele>1858.3</ele>
        <time>2018-10-13T12:36:12Z</time>
      </trkpt>
      <trkpt lat="42.828863" lon="1.752165">
        <ele>1856.3</ele>
        <time>2018-10-13T12:36:27Z</time>
      </trkpt>
      <trkpt lat="42.828868" lon="1.752066">
        <ele>1853.1</ele>
        <time>2018-10-13T12:36:42Z</time>
      </trkpt>
      <trkpt lat="42.828928" lon="1.751961">
        <ele>1849.8</ele>
        <time>2018-10-13T12:36:55Z</time>
      </trkpt>
      <trkpt lat="42.828997" lon="1.751853">
        <ele>1848.0</ele>
        <time>2018-10-13T12:37:03Z</time>
      </trkpt>
      <trkpt lat="42.829019" lon="1.751719">
        <ele>1847.0</ele>
        <time>2018-10-13T12:37:12Z</time>
      </trkpt>
      <trkpt lat="42.829030" lon="1.751584">
        <ele>1846.1</ele>
        <time>2018-10-13T12:37:20Z</time>
      </trkpt>
      <trkpt lat="42.829071" lon="1.751472">
        <ele>1846.0</ele>
        <time>2018-10-13T12:37:30Z</time>
      </trkpt>
      <trkpt lat="42.829151" lon="1.751404">
        <ele>1844.3</ele>
        <time>2018-10-13T12:37:44Z</time>
      </trkpt>
      <trkpt lat="42.829179" lon="1.751303">
        <ele>1840.6</ele>
        <time>2018-10-13T12:37:59Z</time>
      </trkpt>
      <trkpt lat="42.829209" lon="1.751189">
        <ele>1836.9</ele>
        <time>2018-10-13T12:38:14Z</time>
      </trkpt>
      <trkpt lat="42.829296" lon="1.751134">
        <ele>1833.8</ele>
        <time>2018-10-13T12:38:27Z</time>
      </trkpt>
      <trkpt lat="42.829357" lon="1.751051">
        <ele>1830.4</ele>
        <time>2018-10-13T12:38:40Z</time>
      </trkpt>
      <trkpt lat="42.829425" lon="1.750954">
        <ele>1826.3</ele>
        <time>2018-10-13T12:38:53Z</time>
      </trkpt>
      <trkpt lat="42.829518" lon="1.750926">
        <ele>1822.1</ele>
        <time>2018-10-13T12:39:22Z</time>
      </trkpt>
      <trkpt lat="42.829553" lon="1.750835">
        <ele>1818.3</ele>
        <time>2018-10-13T12:39:43Z</time>
      </trkpt>
      <trkpt lat="42.829634" lon="1.750781">
        <ele>1815.3</ele>
        <time>2018-10-13T12:40:02Z</time>
      </trkpt>
      <trkpt lat="42.829699" lon="1.750719">
        <ele>1812.4</ele>
        <time>2018-10-13T12:40:15Z</time>
      </trkpt>
      <trkpt lat="42.829781" lon="1.750692">
        <ele>1809.5</ele>
        <time>2018-10-13T12:40:30Z</time>
      </trkpt>
      <trkpt lat="42.829865" lon="1.750714">
        <ele>1807.2</ele>
        <time>2018-10-13T12:40:43Z</time>
      </trkpt>
      <trkpt lat="42.829917" lon="1.750663">
        <ele>1804.3</ele>
        <time>2018-10-13T12:41:05Z</time>
      </trkpt>
      <trkpt lat="42.829963" lon="1.750615">
        <ele>1802.5</ele>
        <time>2018-10-13T12:41:57Z</time>
      </trkpt>
      <trkpt lat="42.830048" lon="1.750589">
        <ele>1800.7</ele>
        <time>2018-10-13T12:42:06Z</time>
      </trkpt>
      <trkpt lat="42.830125" lon="1.750520">
        <ele>1799.5</ele>
        <time>2018-10-13T12:42:16Z</time>
      </trkpt>
      <trkpt lat="42.830196" lon="1.750453">
        <ele>1797.9</ele>
        <time>2018-10-13T12:42:35Z</time>
      </trkpt>
      <trkpt lat="42.830241" lon="1.750379">
        <ele>1795.9</ele>
        <time>2018-10-13T12:46:04Z</time>
      </trkpt>
      <trkpt lat="42.830330" lon="1.750303">
        <ele>1794.2</ele>
        <time>2018-10-13T12:46:17Z</time>
      </trkpt>
      <trkpt lat="42.830415" lon="1.750229">
        <ele>1790.4</ele>
        <time>2018-10-13T12:47:10Z</time>
      </trkpt>
      <trkpt lat="42.830468" lon="1.750154">
        <ele>1789.4</ele>
        <time>2018-10-13T12:47:23Z</time>
      </trkpt>
      <trkpt lat="42.830505" lon="1.750052">
        <ele>1787.2</ele>
        <time>2018-10-13T12:47:35Z</time>
      </trkpt>
      <trkpt lat="42.830497" lon="1.749909">
        <ele>1785.5</ele>
        <time>2018-10-13T12:47:46Z</time>
      </trkpt>
      <trkpt lat="42.830493" lon="1.749790">
        <ele>1784.3</ele>
        <time>2018-10-13T12:47:56Z</time>
      </trkpt>
      <trkpt lat="42.830556" lon="1.749690">
        <ele>1782.6</ele>
        <time>2018-10-13T12:48:06Z</time>
      </trkpt>
      <trkpt lat="42.830611" lon="1.749592">
        <ele>1780.4</ele>
        <time>2018-10-13T12:48:15Z</time>
      </trkpt>
      <trkpt lat="42.830652" lon="1.749460">
        <ele>1779.2</ele>
        <time>2018-10-13T12:48:25Z</time>
      </trkpt>
      <trkpt lat="42.830678" lon="1.749319">
        <ele>1778.1</ele>
        <time>2018-10-13T12:48:36Z</time>
      </trkpt>
      <trkpt lat="42.830750" lon="1.749231">
        <ele>1777.0</ele>
        <time>2018-10-13T12:48:45Z</time>
      </trkpt>
      <trkpt lat="42.830795" lon="1.749112">
        <ele>1775.9</ele>
        <time>2018-10-13T12:48:56Z</time>
      </trkpt>
      <trkpt lat="42.830869" lon="1.748982">
        <ele>1774.3</ele>
        <time>2018-10-13T12:49:07Z</time>
      </trkpt>
      <trkpt lat="42.830951" lon="1.748904">
        <ele>1772.8</ele>
        <time>2018-10-13T12:49:19Z</time>
      </trkpt>
      <trkpt lat="42.830986" lon="1.748848">
        <ele>1771.1</ele>
        <time>2018-10-13T12:49:57Z</time>
      </trkpt>
      <trkpt lat="42.831062" lon="1.748742">
        <ele>1768.8</ele>
        <time>2018-10-13T12:50:12Z</time>
      </trkpt>
      <trkpt lat="42.831090" lon="1.748639">
        <ele>1766.7</ele>
        <time>2018-10-13T12:50:38Z</time>
      </trkpt>
      <trkpt lat="42.831159" lon="1.748609">
        <ele>1766.1</ele>
        <time>2018-10-13T12:52:27Z</time>
      </trkpt>
      <trkpt lat="42.831270" lon="1.748584">
        <ele>1765.5</ele>
        <time>2018-10-13T12:52:38Z</time>
      </trkpt>
      <trkpt lat="42.831345" lon="1.748596">
        <ele>1764.4</ele>
        <time>2018-10-13T12:54:31Z</time>
      </trkpt>
      <trkpt lat="42.831446" lon="1.748595">
        <ele>1764.1</ele>
        <time>2018-10-13T12:54:43Z</time>
      </trkpt>
      <trkpt lat="42.831542" lon="1.748611">
        <ele>1763.6</ele>
        <time>2018-10-13T12:54:53Z</time>
      </trkpt>
      <trkpt lat="42.831636" lon="1.748634">
        <ele>1763.5</ele>
        <time>2018-10-13T12:55:02Z</time>
      </trkpt>
      <trkpt lat="42.831724" lon="1.748680">
        <ele>1763.2</ele>
        <time>2018-10-13T12:55:10Z</time>
      </trkpt>
      <trkpt lat="42.831817" lon="1.748744">
        <ele>1762.4</ele>
        <time>2018-10-13T12:55:18Z</time>
      </trkpt>
      <trkpt lat="42.831905" lon="1.748810">
        <ele>1761.1</ele>
        <time>2018-10-13T12:55:26Z</time>
      </trkpt>
      <trkpt lat="42.831986" lon="1.748861">
        <ele>1760.5</ele>
        <time>2018-10-13T12:55:35Z</time>
      </trkpt>
      <trkpt lat="42.832071" lon="1.748915">
        <ele>1759.8</ele>
        <time>2018-10-13T12:55:44Z</time>
      </trkpt>
      <trkpt lat="42.832144" lon="1.748977">
        <ele>1759.3</ele>
        <time>2018-10-13T12:55:53Z</time>
      </trkpt>
      <trkpt lat="42.832217" lon="1.749030">
        <ele>1758.8</ele>
        <time>2018-10-13T12:56:25Z</time>
      </trkpt>
      <trkpt lat="42.832316" lon="1.749064">
        <ele>1758.2</ele>
        <time>2018-10-13T12:56:38Z</time>
      </trkpt>
      <trkpt lat="42.832410" lon="1.749112">
        <ele>1758.0</ele>
        <time>2018-10-13T12:56:46Z</time>
      </trkpt>
      <trkpt lat="42.832507" lon="1.749155">
        <ele>1757.4</ele>
        <time>2018-10-13T12:56:53Z</time>
      </trkpt>
      <trkpt lat="42.832600" lon="1.749194">
        <ele>1756.6</ele>
        <time>2018-10-13T12:57:00Z</time>
      </trkpt>
      <trkpt lat="42.832678" lon="1.749275">
        <ele>1755.4</ele>
        <time>2018-10-13T12:57:07Z</time>
      </trkpt>
      <trkpt lat="42.832739" lon="1.749358">
        <ele>1754.1</ele>
        <time>2018-10-13T12:57:14Z</time>
      </trkpt>
      <trkpt lat="42.832838" lon="1.749391">
        <ele>1752.6</ele>
        <time>2018-10-13T12:57:21Z</time>
      </trkpt>
      <trkpt lat="42.832923" lon="1.749352">
        <ele>1750.8</ele>
        <time>2018-10-13T12:57:27Z</time>
      </trkpt>
      <trkpt lat="42.832987" lon="1.749262">
        <ele>1748.7</ele>
        <time>2018-10-13T12:57:34Z</time>
      </trkpt>
      <trkpt lat="42.833058" lon="1.749162">
        <ele>1747.0</ele>
        <time>2018-10-13T12:57:42Z</time>
      </trkpt>
      <trkpt lat="42.833130" lon="1.749086">
        <ele>1745.0</ele>
        <time>2018-10-13T12:57:52Z</time>
      </trkpt>
      <trkpt lat="42.833181" lon="1.748991">
        <ele>1742.8</ele>
        <time>2018-10-13T12:58:02Z</time>
      </trkpt>
      <trkpt lat="42.833260" lon="1.748908">
        <ele>1741.3</ele>
        <time>2018-10-13T12:58:12Z</time>
      </trkpt>
      <trkpt lat="42.833336" lon="1.748825">
        <ele>1739.4</ele>
        <time>2018-10-13T12:58:22Z</time>
      </trkpt>
      <trkpt lat="42.833426" lon="1.748783">
        <ele>1737.3</ele>
        <time>2018-10-13T12:58:33Z</time>
      </trkpt>
      <trkpt lat="42.833523" lon="1.748757">
        <ele>1735.4</ele>
        <time>2018-10-13T12:58:44Z</time>
      </trkpt>
      <trkpt lat="42.833628" lon="1.748779">
        <ele>1733.4</ele>
        <time>2018-10-13T12:58:56Z</time>
      </trkpt>
      <trkpt lat="42.833733" lon="1.748783">
        <ele>1731.8</ele>
        <time>2018-10-13T12:59:08Z</time>
      </trkpt>
      <trkpt lat="42.833836" lon="1.748758">
        <ele>1730.2</ele>
        <time>2018-10-13T12:59:18Z</time>
      </trkpt>
      <trkpt lat="42.833922" lon="1.748703">
        <ele>1728.9</ele>
        <time>2018-10-13T12:59:26Z</time>
      </trkpt>
      <trkpt lat="42.834011" lon="1.748630">
        <ele>1727.6</ele>
        <time>2018-10-13T12:59:34Z</time>
      </trkpt>
      <trkpt lat="42.834078" lon="1.748541">
        <ele>1726.2</ele>
        <time>2018-10-13T12:59:42Z</time>
      </trkpt>
      <trkpt lat="42.834152" lon="1.748461">
        <ele>1724.4</ele>
        <time>2018-10-13T12:59:51Z</time>
      </trkpt>
      <trkpt lat="42.834194" lon="1.748352">
        <ele>1723.3</ele>
        <time>2018-10-13T12:59:59Z</time>
      </trkpt>
      <trkpt lat="42.834226" lon="1.748240">
        <ele>1722.7</ele>
        <time>2018-10-13T13:00:07Z</time>
      </trkpt>
      <trkpt lat="42.834271" lon="1.748118">
        <ele>1721.7</ele>
        <time>2018-10-13T13:00:16Z</time>
      </trkpt>
      <trkpt lat="42.834326" lon="1.748012">
        <ele>1720.5</ele>
        <time>2018-10-13T13:00:25Z</time>
      </trkpt>
      <trkpt lat="42.834371" lon="1.747897">
        <ele>1719.5</ele>
        <time>2018-10-13T13:00:33Z</time>
      </trkpt>
      <trkpt lat="42.834418" lon="1.747768">
        <ele>1719.1</ele>
        <time>2018-10-13T13:00:41Z</time>
      </trkpt>
      <trkpt lat="42.834490" lon="1.747668">
        <ele>1719.3</ele>
        <time>2018-10-13T13:00:50Z</time>
      </trkpt>
      <trkpt lat="42.834538" lon="1.747560">
        <ele>1719.3</ele>
        <time>2018-10-13T13:00:58Z</time>
      </trkpt>
      <trkpt lat="42.834558" lon="1.747428">
        <ele>1718.7</ele>
        <time>2018-10-13T13:01:06Z</time>
      </trkpt>
      <trkpt lat="42.834555" lon="1.747309">
        <ele>1718.5</ele>
        <time>2018-10-13T13:01:14Z</time>
      </trkpt>
      <trkpt lat="42.834533" lon="1.747170">
        <ele>1718.7</ele>
        <time>2018-10-13T13:01:22Z</time>
      </trkpt>
      <trkpt lat="42.834498" lon="1.747042">
        <ele>1718.6</ele>
        <time>2018-10-13T13:01:30Z</time>
      </trkpt>
      <trkpt lat="42.834477" lon="1.746916">
        <ele>1718.5</ele>
        <time>2018-10-13T13:01:38Z</time>
      </trkpt>
      <trkpt lat="42.834450" lon="1.746810">
        <ele>1718.7</ele>
        <time>2018-10-13T13:01:46Z</time>
      </trkpt>
      <trkpt lat="42.834421" lon="1.746692">
        <ele>1718.8</ele>
        <time>2018-10-13T13:01:54Z</time>
      </trkpt>
      <trkpt lat="42.834357" lon="1.746590">
        <ele>1719.1</ele>
        <time>2018-10-13T13:02:02Z</time>
      </trkpt>
      <trkpt lat="42.834292" lon="1.746499">
        <ele>1719.2</ele>
        <time>2018-10-13T13:02:10Z</time>
      </trkpt>
      <trkpt lat="42.834223" lon="1.746203">
        <ele>1718.7</ele>
        <time>2018-10-13T13:02:34Z</time>
      </trkpt>
      <trkpt lat="42.834218" lon="1.745894">
        <ele>1716.4</ele>
        <time>2018-10-13T13:05:49Z</time>
      </trkpt>
      <trkpt lat="42.834295" lon="1.745716">
        <ele>1712.8</ele>
        <time>2018-10-13T13:06:02Z</time>
      </trkpt>
      <trkpt lat="42.834382" lon="1.745584">
        <ele>1709.2</ele>
        <time>2018-10-13T13:06:18Z</time>
      </trkpt>
      <trkpt lat="42.834514" lon="1.745457">
        <ele>1707.5</ele>
        <time>2018-10-13T13:06:33Z</time>
      </trkpt>
      <trkpt lat="42.834599" lon="1.745461">
        <ele>1704.8</ele>
        <time>2018-10-13T13:06:44Z</time>
      </trkpt>
      <trkpt lat="42.834702" lon="1.745487">
        <ele>1701.7</ele>
        <time>2018-10-13T13:06:56Z</time>
      </trkpt>
      <trkpt lat="42.834792" lon="1.745531">
        <ele>1700.2</ele>
        <time>2018-10-13T13:07:05Z</time>
      </trkpt>
      <trkpt lat="42.834882" lon="1.745527">
        <ele>1699.3</ele>
        <time>2018-10-13T13:07:14Z</time>
      </trkpt>
      <trkpt lat="42.834985" lon="1.745509">
        <ele>1698.3</ele>
        <time>2018-10-13T13:07:24Z</time>
      </trkpt>
      <trkpt lat="42.835088" lon="1.745509">
        <ele>1697.2</ele>
        <time>2018-10-13T13:07:35Z</time>
      </trkpt>
      <trkpt lat="42.835184" lon="1.745509">
        <ele>1696.5</ele>
        <time>2018-10-13T13:07:44Z</time>
      </trkpt>
      <trkpt lat="42.835270" lon="1.745510">
        <ele>1695.7</ele>
        <time>2018-10-13T13:07:52Z</time>
      </trkpt>
      <trkpt lat="42.835364" lon="1.745519">
        <ele>1694.9</ele>
        <time>2018-10-13T13:08:01Z</time>
      </trkpt>
      <trkpt lat="42.835453" lon="1.745532">
        <ele>1694.4</ele>
        <time>2018-10-13T13:08:10Z</time>
      </trkpt>
      <trkpt lat="42.835553" lon="1.745524">
        <ele>1693.5</ele>
        <time>2018-10-13T13:08:20Z</time>
      </trkpt>
      <trkpt lat="42.835631" lon="1.745544">
        <ele>1691.7</ele>
        <time>2018-10-13T13:09:47Z</time>
      </trkpt>
      <trkpt lat="42.835708" lon="1.745517">
        <ele>1689.4</ele>
        <time>2018-10-13T13:09:58Z</time>
      </trkpt>
      <trkpt lat="42.835804" lon="1.745507">
        <ele>1684.7</ele>
        <time>2018-10-13T13:10:12Z</time>
      </trkpt>
      <trkpt lat="42.835895" lon="1.745501">
        <ele>1680.8</ele>
        <time>2018-10-13T13:10:26Z</time>
      </trkpt>
      <trkpt lat="42.835959" lon="1.745516">
        <ele>1675.9</ele>
        <time>2018-10-13T13:10:40Z</time>
      </trkpt>
      <trkpt lat="42.836104" lon="1.745553">
        <ele>1667.9</ele>
        <time>2018-10-13T13:11:06Z</time>
      </trkpt>
      <trkpt lat="42.836268" lon="1.745528">
        <ele>1658.7</ele>
        <time>2018-10-13T13:11:34Z</time>
      </trkpt>
      <trkpt lat="42.836357" lon="1.745556">
        <ele>1654.5</ele>
        <time>2018-10-13T13:11:49Z</time>
      </trkpt>
      <trkpt lat="42.836439" lon="1.745523">
        <ele>1651.3</ele>
        <time>2018-10-13T13:12:03Z</time>
      </trkpt>
      <trkpt lat="42.836518" lon="1.745563">
        <ele>1648.6</ele>
        <time>2018-10-13T13:12:13Z</time>
      </trkpt>
      <trkpt lat="42.836590" lon="1.745590">
        <ele>1645.4</ele>
        <time>2018-10-13T13:12:28Z</time>
      </trkpt>
      <trkpt lat="42.836672" lon="1.745611">
        <ele>1640.9</ele>
        <time>2018-10-13T13:12:44Z</time>
      </trkpt>
      <trkpt lat="42.836753" lon="1.745523">
        <ele>1637.1</ele>
        <time>2018-10-13T13:12:58Z</time>
      </trkpt>
      <trkpt lat="42.836851" lon="1.745551">
        <ele>1633.7</ele>
        <time>2018-10-13T13:13:10Z</time>
      </trkpt>
      <trkpt lat="42.836922" lon="1.745459">
        <ele>1631.4</ele>
        <time>2018-10-13T13:13:20Z</time>
      </trkpt>
      <trkpt lat="42.836939" lon="1.745478">
        <ele>1629.4</ele>
        <time>2018-10-13T13:16:13Z</time>
      </trkpt>
      <trkpt lat="42.837049" lon="1.745470">
        <ele>1628.5</ele>
        <time>2018-10-13T13:16:27Z</time>
      </trkpt>
      <trkpt lat="42.837145" lon="1.745502">
        <ele>1627.4</ele>
        <time>2018-10-13T13:16:37Z</time>
      </trkpt>
      <trkpt lat="42.837239" lon="1.745517">
        <ele>1625.8</ele>
        <time>2018-10-13T13:16:46Z</time>
      </trkpt>
      <trkpt lat="42.837330" lon="1.745530">
        <ele>1624.5</ele>
        <time>2018-10-13T13:16:56Z</time>
      </trkpt>
      <trkpt lat="42.837420" lon="1.745598">
        <ele>1622.0</ele>
        <time>2018-10-13T13:17:10Z</time>
      </trkpt>
      <trkpt lat="42.837510" lon="1.745666">
        <ele>1619.5</ele>
        <time>2018-10-13T13:17:22Z</time>
      </trkpt>
      <trkpt lat="42.837615" lon="1.745640">
        <ele>1616.2</ele>
        <time>2018-10-13T13:17:33Z</time>
      </trkpt>
      <trkpt lat="42.837701" lon="1.745627">
        <ele>1612.5</ele>
        <time>2018-10-13T13:17:45Z</time>
      </trkpt>
      <trkpt lat="42.837804" lon="1.745626">
        <ele>1608.0</ele>
        <time>2018-10-13T13:17:58Z</time>
      </trkpt>
      <trkpt lat="42.837900" lon="1.745614">
        <ele>1604.2</ele>
        <time>2018-10-13T13:18:09Z</time>
      </trkpt>
      <trkpt lat="42.838000" lon="1.745599">
        <ele>1600.2</ele>
        <time>2018-10-13T13:18:22Z</time>
      </trkpt>
      <trkpt lat="42.838108" lon="1.745618">
        <ele>1595.5</ele>
        <time>2018-10-13T13:18:37Z</time>
      </trkpt>
      <trkpt lat="42.838197" lon="1.745642">
        <ele>1591.3</ele>
        <time>2018-10-13T13:18:51Z</time>
      </trkpt>
      <trkpt lat="42.838286" lon="1.745644">
        <ele>1588.7</ele>
        <time>2018-10-13T13:19:01Z</time>
      </trkpt>
      <trkpt lat="42.838370" lon="1.745616">
        <ele>1585.0</ele>
        <time>2018-10-13T13:19:12Z</time>
      </trkpt>
      <trkpt lat="42.838470" lon="1.745591">
        <ele>1582.5</ele>
        <time>2018-10-13T13:19:23Z</time>
      </trkpt>
      <trkpt lat="42.838571" lon="1.745585">
        <ele>1579.8</ele>
        <time>2018-10-13T13:19:56Z</time>
      </trkpt>
      <trkpt lat="42.838670" lon="1.745615">
        <ele>1577.8</ele>
        <time>2018-10-13T13:20:07Z</time>
      </trkpt>
      <trkpt lat="42.838768" lon="1.745621">
        <ele>1575.3</ele>
        <time>2018-10-13T13:20:17Z</time>
      </trkpt>
      <trkpt lat="42.838857" lon="1.745638">
        <ele>1572.8</ele>
        <time>2018-10-13T13:20:26Z</time>
      </trkpt>
      <trkpt lat="42.838937" lon="1.745647">
        <ele>1570.0</ele>
        <time>2018-10-13T13:20:35Z</time>
      </trkpt>
      <trkpt lat="42.839024" lon="1.745687">
        <ele>1567.3</ele>
        <time>2018-10-13T13:20:44Z</time>
      </trkpt>
      <trkpt lat="42.839123" lon="1.745681">
        <ele>1565.8</ele>
        <time>2018-10-13T13:20:52Z</time>
      </trkpt>
      <trkpt lat="42.839213" lon="1.745684">
        <ele>1564.8</ele>
        <time>2018-10-13T13:21:00Z</time>
      </trkpt>
      <trkpt lat="42.839305" lon="1.745636">
        <ele>1563.8</ele>
        <time>2018-10-13T13:21:09Z</time>
      </trkpt>
      <trkpt lat="42.839383" lon="1.745618">
        <ele>1563.3</ele>
        <time>2018-10-13T13:21:59Z</time>
      </trkpt>
      <trkpt lat="42.839460" lon="1.745609">
        <ele>1562.5</ele>
        <time>2018-10-13T13:23:33Z</time>
      </trkpt>
      <trkpt lat="42.839576" lon="1.745628">
        <ele>1562.3</ele>
        <time>2018-10-13T13:26:49Z</time>
      </trkpt>
      <trkpt lat="42.839666" lon="1.745684">
        <ele>1562.3</ele>
        <time>2018-10-13T13:26:59Z</time>
      </trkpt>
      <trkpt lat="42.839748" lon="1.745758">
        <ele>1562.1</ele>
        <time>2018-10-13T13:27:08Z</time>
      </trkpt>
      <trkpt lat="42.839823" lon="1.745835">
        <ele>1561.8</ele>
        <time>2018-10-13T13:27:17Z</time>
      </trkpt>
      <trkpt lat="42.839902" lon="1.745917">
        <ele>1561.8</ele>
        <time>2018-10-13T13:27:26Z</time>
      </trkpt>
      <trkpt lat="42.839982" lon="1.745993">
        <ele>1561.5</ele>
        <time>2018-10-13T13:27:35Z</time>
      </trkpt>
      <trkpt lat="42.840074" lon="1.746042">
        <ele>1561.8</ele>
        <time>2018-10-13T13:27:44Z</time>
      </trkpt>
      <trkpt lat="42.840168" lon="1.746078">
        <ele>1562.5</ele>
        <time>2018-10-13T13:27:53Z</time>
      </trkpt>
      <trkpt lat="42.840250" lon="1.746155">
        <ele>1562.8</ele>
        <time>2018-10-13T13:28:03Z</time>
      </trkpt>
      <trkpt lat="42.840298" lon="1.746272">
        <ele>1563.0</ele>
        <time>2018-10-13T13:28:13Z</time>
      </trkpt>
      <trkpt lat="42.840285" lon="1.746367">
        <ele>1563.1</ele>
        <time>2018-10-13T13:28:28Z</time>
      </trkpt>
      <trkpt lat="42.840389" lon="1.746452">
        <ele>1562.6</ele>
        <time>2018-10-13T13:29:17Z</time>
      </trkpt>
      <trkpt lat="42.840490" lon="1.746455">
        <ele>1561.0</ele>
        <time>2018-10-13T13:29:27Z</time>
      </trkpt>
      <trkpt lat="42.840580" lon="1.746490">
        <ele>1559.2</ele>
        <time>2018-10-13T13:29:37Z</time>
      </trkpt>
      <trkpt lat="42.840681" lon="1.746544">
        <ele>1557.2</ele>
        <time>2018-10-13T13:29:48Z</time>
      </trkpt>
      <trkpt lat="42.840752" lon="1.746628">
        <ele>1554.6</ele>
        <time>2018-10-13T13:29:58Z</time>
      </trkpt>
      <trkpt lat="42.840830" lon="1.746707">
        <ele>1552.2</ele>
        <time>2018-10-13T13:30:07Z</time>
      </trkpt>
      <trkpt lat="42.840903" lon="1.746763">
        <ele>1549.5</ele>
        <time>2018-10-13T13:30:17Z</time>
      </trkpt>
      <trkpt lat="42.840977" lon="1.746828">
        <ele>1546.0</ele>
        <time>2018-10-13T13:30:29Z</time>
      </trkpt>
      <trkpt lat="42.841072" lon="1.746868">
        <ele>1543.3</ele>
        <time>2018-10-13T13:30:39Z</time>
      </trkpt>
      <trkpt lat="42.841159" lon="1.746903">
        <ele>1540.7</ele>
        <time>2018-10-13T13:30:47Z</time>
      </trkpt>
      <trkpt lat="42.841245" lon="1.746979">
        <ele>1537.9</ele>
        <time>2018-10-13T13:30:55Z</time>
      </trkpt>
      <trkpt lat="42.841332" lon="1.747021">
        <ele>1535.4</ele>
        <time>2018-10-13T13:31:03Z</time>
      </trkpt>
      <trkpt lat="42.841420" lon="1.747061">
        <ele>1533.1</ele>
        <time>2018-10-13T13:31:10Z</time>
      </trkpt>
      <trkpt lat="42.841522" lon="1.747111">
        <ele>1531.5</ele>
        <time>2018-10-13T13:31:19Z</time>
      </trkpt>
      <trkpt lat="42.841629" lon="1.747112">
        <ele>1530.5</ele>
        <time>2018-10-13T13:31:28Z</time>
      </trkpt>
      <trkpt lat="42.841726" lon="1.747082">
        <ele>1530.1</ele>
        <time>2018-10-13T13:31:36Z</time>
      </trkpt>
      <trkpt lat="42.841806" lon="1.747036">
        <ele>1528.9</ele>
        <time>2018-10-13T13:31:57Z</time>
      </trkpt>
      <trkpt lat="42.841889" lon="1.746975">
        <ele>1528.0</ele>
        <time>2018-10-13T13:32:06Z</time>
      </trkpt>
      <trkpt lat="42.841954" lon="1.746918">
        <ele>1525.2</ele>
        <time>2018-10-13T13:32:34Z</time>
      </trkpt>
      <trkpt lat="42.842034" lon="1.746947">
        <ele>1522.7</ele>
        <time>2018-10-13T13:32:46Z</time>
      </trkpt>
      <trkpt lat="42.842121" lon="1.746962">
        <ele>1518.7</ele>
        <time>2018-10-13T13:32:57Z</time>
      </trkpt>
      <trkpt lat="42.842194" lon="1.747014">
        <ele>1514.5</ele>
        <time>2018-10-13T13:33:07Z</time>
      </trkpt>
      <trkpt lat="42.842276" lon="1.747071">
        <ele>1511.1</ele>
        <time>2018-10-13T13:33:16Z</time>
      </trkpt>
      <trkpt lat="42.842361" lon="1.747103">
        <ele>1507.8</ele>
        <time>2018-10-13T13:33:26Z</time>
      </trkpt>
      <trkpt lat="42.842427" lon="1.747041">
        <ele>1506.1</ele>
        <time>2018-10-13T13:33:35Z</time>
      </trkpt>
      <trkpt lat="42.842646" lon="1.746993">
        <ele>1503.8</ele>
        <time>2018-10-13T13:37:24Z</time>
      </trkpt>
      <trkpt lat="42.842738" lon="1.746934">
        <ele>1503.8</ele>
        <time>2018-10-13T13:37:36Z</time>
      </trkpt>
      <trkpt lat="42.842823" lon="1.746931">
        <ele>1503.6</ele>
        <time>2018-10-13T13:37:46Z</time>
      </trkpt>
      <trkpt lat="42.842906" lon="1.746931">
        <ele>1503.2</ele>
        <time>2018-10-13T13:37:57Z</time>
      </trkpt>
      <trkpt lat="42.842948" lon="1.746913">
        <ele>1506.1</ele>
        <time>2018-10-13T13:38:33Z</time>
      </trkpt>
    </trkseg>
  </trk>
</gpx>

